<?xml version="1.0" encoding="UTF-8" standalone="no" ?>
<gpx xmlns="http://www.topografix.com/GPX/1/1" xmlns:xsi="http://www.w3.org/2001/XMLSchema-instance" xsi:schemaLocation="http://www.topografix.com/GPX/1/1 http://www.topografix.com/GPX/1/1/gpx.xsd" version="1.1" creator="VisuGPX - https://www.visugpx.com">
  <metadata>
    <name>GR 2013 2ème tronçon</name>
    <desc><![CDATA[Démarrage de la gare TGV de l'Arbois]]></desc>
  </metadata>
  <trk>
    <name><![CDATA[GR 2013 2ème tronçon_1]]></name>
    <trkseg>
      <trkpt lat="43.45733" lon="5.31601">
        <ele>199</ele>
        <time>2013-03-10T08:45:40Z</time>
      </trkpt>
      <trkpt lat="43.45745" lon="5.31636">
        <ele>197</ele>
        <time>2013-03-10T08:46:27Z</time>
      </trkpt>
      <trkpt lat="43.45746" lon="5.31651">
        <ele>197</ele>
        <time>2013-03-10T08:46:36Z</time>
      </trkpt>
      <trkpt lat="43.45745" lon="5.31667">
        <ele>197</ele>
        <time>2013-03-10T08:46:45Z</time>
      </trkpt>
      <trkpt lat="43.45744" lon="5.31682">
        <ele>197</ele>
        <time>2013-03-10T08:46:54Z</time>
      </trkpt>
      <trkpt lat="43.45741" lon="5.31697">
        <ele>197</ele>
        <time>2013-03-10T08:47:03Z</time>
      </trkpt>
      <trkpt lat="43.45736" lon="5.31711">
        <ele>196</ele>
        <time>2013-03-10T08:47:12Z</time>
      </trkpt>
      <trkpt lat="43.45737" lon="5.31716">
        <ele>195</ele>
        <time>2013-03-10T08:47:21Z</time>
      </trkpt>
      <trkpt lat="43.4573" lon="5.31729">
        <ele>194</ele>
        <time>2013-03-10T08:47:31Z</time>
      </trkpt>
      <trkpt lat="43.45724" lon="5.31742">
        <ele>192</ele>
        <time>2013-03-10T08:47:41Z</time>
      </trkpt>
      <trkpt lat="43.45715" lon="5.31755">
        <ele>192</ele>
        <time>2013-03-10T08:47:51Z</time>
      </trkpt>
      <trkpt lat="43.45706" lon="5.31762">
        <ele>192</ele>
        <time>2013-03-10T08:48:01Z</time>
      </trkpt>
      <trkpt lat="43.45702" lon="5.31763">
        <ele>191</ele>
        <time>2013-03-10T08:48:13Z</time>
      </trkpt>
      <trkpt lat="43.45699" lon="5.31764">
        <ele>191</ele>
        <time>2013-03-10T08:48:30Z</time>
      </trkpt>
      <trkpt lat="43.45695" lon="5.31769">
        <ele>191</ele>
        <time>2013-03-10T08:48:40Z</time>
      </trkpt>
      <trkpt lat="43.45693" lon="5.31773">
        <ele>191</ele>
        <time>2013-03-10T08:48:50Z</time>
      </trkpt>
      <trkpt lat="43.45692" lon="5.31787">
        <ele>190</ele>
        <time>2013-03-10T08:48:59Z</time>
      </trkpt>
      <trkpt lat="43.45687" lon="5.31802">
        <ele>189</ele>
        <time>2013-03-10T08:49:08Z</time>
      </trkpt>
      <trkpt lat="43.45694" lon="5.31807">
        <ele>186</ele>
        <time>2013-03-10T08:49:17Z</time>
      </trkpt>
      <trkpt lat="43.45706" lon="5.3181">
        <ele>186</ele>
        <time>2013-03-10T08:49:26Z</time>
      </trkpt>
      <trkpt lat="43.45717" lon="5.31807">
        <ele>186</ele>
        <time>2013-03-10T08:49:35Z</time>
      </trkpt>
      <trkpt lat="43.45728" lon="5.31802">
        <ele>186</ele>
        <time>2013-03-10T08:49:45Z</time>
      </trkpt>
      <trkpt lat="43.45738" lon="5.31796">
        <ele>186</ele>
        <time>2013-03-10T08:49:54Z</time>
      </trkpt>
      <trkpt lat="43.45748" lon="5.31789">
        <ele>186</ele>
        <time>2013-03-10T08:50:03Z</time>
      </trkpt>
      <trkpt lat="43.45758" lon="5.31783">
        <ele>187</ele>
        <time>2013-03-10T08:50:13Z</time>
      </trkpt>
      <trkpt lat="43.45768" lon="5.31777">
        <ele>188</ele>
        <time>2013-03-10T08:50:23Z</time>
      </trkpt>
      <trkpt lat="43.45776" lon="5.31772">
        <ele>188</ele>
        <time>2013-03-10T08:50:33Z</time>
      </trkpt>
      <trkpt lat="43.45786" lon="5.31773">
        <ele>188</ele>
        <time>2013-03-10T08:50:42Z</time>
      </trkpt>
      <trkpt lat="43.45792" lon="5.3178">
        <ele>188</ele>
        <time>2013-03-10T08:50:51Z</time>
      </trkpt>
      <trkpt lat="43.45795" lon="5.31793">
        <ele>188</ele>
        <time>2013-03-10T08:51:00Z</time>
      </trkpt>
      <trkpt lat="43.458" lon="5.31806">
        <ele>188</ele>
        <time>2013-03-10T08:51:09Z</time>
      </trkpt>
      <trkpt lat="43.45803" lon="5.3182">
        <ele>187</ele>
        <time>2013-03-10T08:51:18Z</time>
      </trkpt>
      <trkpt lat="43.45805" lon="5.31836">
        <ele>187</ele>
        <time>2013-03-10T08:51:27Z</time>
      </trkpt>
      <trkpt lat="43.45807" lon="5.3185">
        <ele>186</ele>
        <time>2013-03-10T08:51:36Z</time>
      </trkpt>
      <trkpt lat="43.45808" lon="5.31866">
        <ele>186</ele>
        <time>2013-03-10T08:51:45Z</time>
      </trkpt>
      <trkpt lat="43.45808" lon="5.31881">
        <ele>185</ele>
        <time>2013-03-10T08:51:54Z</time>
      </trkpt>
      <trkpt lat="43.45812" lon="5.31893">
        <ele>184</ele>
        <time>2013-03-10T08:52:03Z</time>
      </trkpt>
      <trkpt lat="43.45811" lon="5.31908">
        <ele>184</ele>
        <time>2013-03-10T08:52:12Z</time>
      </trkpt>
      <trkpt lat="43.45813" lon="5.31919">
        <ele>184</ele>
        <time>2013-03-10T08:52:23Z</time>
      </trkpt>
      <trkpt lat="43.45821" lon="5.31931">
        <ele>183</ele>
        <time>2013-03-10T08:52:33Z</time>
      </trkpt>
      <trkpt lat="43.45814" lon="5.31939">
        <ele>183</ele>
        <time>2013-03-10T08:52:42Z</time>
      </trkpt>
      <trkpt lat="43.45811" lon="5.31952">
        <ele>183</ele>
        <time>2013-03-10T08:52:51Z</time>
      </trkpt>
      <trkpt lat="43.45808" lon="5.31967">
        <ele>182</ele>
        <time>2013-03-10T08:53:00Z</time>
      </trkpt>
      <trkpt lat="43.45805" lon="5.31982">
        <ele>181</ele>
        <time>2013-03-10T08:53:10Z</time>
      </trkpt>
      <trkpt lat="43.45803" lon="5.31995">
        <ele>180</ele>
        <time>2013-03-10T08:53:19Z</time>
      </trkpt>
      <trkpt lat="43.45804" lon="5.32007">
        <ele>180</ele>
        <time>2013-03-10T08:53:28Z</time>
      </trkpt>
      <trkpt lat="43.45804" lon="5.3202">
        <ele>180</ele>
        <time>2013-03-10T08:53:37Z</time>
      </trkpt>
      <trkpt lat="43.45802" lon="5.32033">
        <ele>180</ele>
        <time>2013-03-10T08:53:46Z</time>
      </trkpt>
      <trkpt lat="43.45798" lon="5.32047">
        <ele>178</ele>
        <time>2013-03-10T08:53:56Z</time>
      </trkpt>
      <trkpt lat="43.45797" lon="5.32055">
        <ele>178</ele>
        <time>2013-03-10T08:54:06Z</time>
      </trkpt>
      <trkpt lat="43.45791" lon="5.32068">
        <ele>178</ele>
        <time>2013-03-10T08:54:15Z</time>
      </trkpt>
      <trkpt lat="43.45788" lon="5.32085">
        <ele>178</ele>
        <time>2013-03-10T08:54:24Z</time>
      </trkpt>
      <trkpt lat="43.45784" lon="5.32095">
        <ele>178</ele>
        <time>2013-03-10T08:54:36Z</time>
      </trkpt>
      <trkpt lat="43.45796" lon="5.32089">
        <ele>178</ele>
        <time>2013-03-10T08:54:45Z</time>
      </trkpt>
      <trkpt lat="43.45805" lon="5.32092">
        <ele>178</ele>
        <time>2013-03-10T08:54:54Z</time>
      </trkpt>
      <trkpt lat="43.45807" lon="5.32093">
        <ele>178</ele>
        <time>2013-03-10T08:55:04Z</time>
      </trkpt>
      <trkpt lat="43.45808" lon="5.32092">
        <ele>178</ele>
        <time>2013-03-10T08:55:16Z</time>
      </trkpt>
      <trkpt lat="43.45819" lon="5.32092">
        <ele>178</ele>
        <time>2013-03-10T08:55:25Z</time>
      </trkpt>
      <trkpt lat="43.45831" lon="5.32089">
        <ele>178</ele>
        <time>2013-03-10T08:55:34Z</time>
      </trkpt>
      <trkpt lat="43.45842" lon="5.32087">
        <ele>178</ele>
        <time>2013-03-10T08:55:43Z</time>
      </trkpt>
      <trkpt lat="43.45855" lon="5.32084">
        <ele>178</ele>
        <time>2013-03-10T08:55:52Z</time>
      </trkpt>
      <trkpt lat="43.45866" lon="5.32085">
        <ele>178</ele>
        <time>2013-03-10T08:56:02Z</time>
      </trkpt>
      <trkpt lat="43.45876" lon="5.32085">
        <ele>178</ele>
        <time>2013-03-10T08:56:12Z</time>
      </trkpt>
      <trkpt lat="43.45886" lon="5.32088">
        <ele>177</ele>
        <time>2013-03-10T08:56:22Z</time>
      </trkpt>
      <trkpt lat="43.45894" lon="5.32095">
        <ele>176</ele>
        <time>2013-03-10T08:56:31Z</time>
      </trkpt>
      <trkpt lat="43.45901" lon="5.32104">
        <ele>174</ele>
        <time>2013-03-10T08:56:41Z</time>
      </trkpt>
      <trkpt lat="43.45908" lon="5.32116">
        <ele>173</ele>
        <time>2013-03-10T08:56:51Z</time>
      </trkpt>
      <trkpt lat="43.45914" lon="5.32127">
        <ele>173</ele>
        <time>2013-03-10T08:57:01Z</time>
      </trkpt>
      <trkpt lat="43.4592" lon="5.32139">
        <ele>172</ele>
        <time>2013-03-10T08:57:10Z</time>
      </trkpt>
      <trkpt lat="43.45926" lon="5.32151">
        <ele>172</ele>
        <time>2013-03-10T08:57:19Z</time>
      </trkpt>
      <trkpt lat="43.45931" lon="5.32161">
        <ele>172</ele>
        <time>2013-03-10T08:57:28Z</time>
      </trkpt>
      <trkpt lat="43.45936" lon="5.32174">
        <ele>172</ele>
        <time>2013-03-10T08:57:37Z</time>
      </trkpt>
      <trkpt lat="43.4594" lon="5.32186">
        <ele>172</ele>
        <time>2013-03-10T08:57:47Z</time>
      </trkpt>
      <trkpt lat="43.45946" lon="5.32198">
        <ele>172</ele>
        <time>2013-03-10T08:57:56Z</time>
      </trkpt>
      <trkpt lat="43.45951" lon="5.3221">
        <ele>172</ele>
        <time>2013-03-10T08:58:05Z</time>
      </trkpt>
      <trkpt lat="43.45956" lon="5.32221">
        <ele>172</ele>
        <time>2013-03-10T08:58:14Z</time>
      </trkpt>
      <trkpt lat="43.45961" lon="5.32233">
        <ele>172</ele>
        <time>2013-03-10T08:58:23Z</time>
      </trkpt>
      <trkpt lat="43.45964" lon="5.32248">
        <ele>172</ele>
        <time>2013-03-10T08:58:33Z</time>
      </trkpt>
      <trkpt lat="43.45966" lon="5.32261">
        <ele>172</ele>
        <time>2013-03-10T08:58:42Z</time>
      </trkpt>
      <trkpt lat="43.45967" lon="5.32273">
        <ele>172</ele>
        <time>2013-03-10T08:58:51Z</time>
      </trkpt>
      <trkpt lat="43.45967" lon="5.32287">
        <ele>172</ele>
        <time>2013-03-10T08:59:00Z</time>
      </trkpt>
      <trkpt lat="43.45965" lon="5.32301">
        <ele>170</ele>
        <time>2013-03-10T08:59:09Z</time>
      </trkpt>
      <trkpt lat="43.45961" lon="5.32316">
        <ele>168</ele>
        <time>2013-03-10T08:59:19Z</time>
      </trkpt>
      <trkpt lat="43.45957" lon="5.32328">
        <ele>167</ele>
        <time>2013-03-10T08:59:28Z</time>
      </trkpt>
      <trkpt lat="43.4595" lon="5.3234">
        <ele>164</ele>
        <time>2013-03-10T08:59:38Z</time>
      </trkpt>
      <trkpt lat="43.45945" lon="5.32353">
        <ele>163</ele>
        <time>2013-03-10T08:59:47Z</time>
      </trkpt>
      <trkpt lat="43.4595" lon="5.32368">
        <ele>163</ele>
        <time>2013-03-10T08:59:57Z</time>
      </trkpt>
      <trkpt lat="43.45961" lon="5.32372">
        <ele>163</ele>
        <time>2013-03-10T09:00:06Z</time>
      </trkpt>
      <trkpt lat="43.45971" lon="5.32376">
        <ele>163</ele>
        <time>2013-03-10T09:00:16Z</time>
      </trkpt>
      <trkpt lat="43.45981" lon="5.3238">
        <ele>162</ele>
        <time>2013-03-10T09:00:26Z</time>
      </trkpt>
      <trkpt lat="43.45989" lon="5.3238">
        <ele>161</ele>
        <time>2013-03-10T09:00:37Z</time>
      </trkpt>
      <trkpt lat="43.45995" lon="5.32381">
        <ele>168</ele>
        <time>2013-03-10T09:00:46Z</time>
      </trkpt>
      <trkpt lat="43.45999" lon="5.32382">
        <ele>168</ele>
        <time>2013-03-10T09:00:55Z</time>
      </trkpt>
      <trkpt lat="43.46001" lon="5.32383">
        <ele>168</ele>
        <time>2013-03-10T09:01:05Z</time>
      </trkpt>
      <trkpt lat="43.46011" lon="5.32386">
        <ele>168</ele>
        <time>2013-03-10T09:01:14Z</time>
      </trkpt>
      <trkpt lat="43.46021" lon="5.32387">
        <ele>167</ele>
        <time>2013-03-10T09:01:23Z</time>
      </trkpt>
      <trkpt lat="43.46032" lon="5.32389">
        <ele>164</ele>
        <time>2013-03-10T09:01:33Z</time>
      </trkpt>
      <trkpt lat="43.46045" lon="5.3239">
        <ele>164</ele>
        <time>2013-03-10T09:01:42Z</time>
      </trkpt>
      <trkpt lat="43.46055" lon="5.3238">
        <ele>164</ele>
        <time>2013-03-10T09:01:51Z</time>
      </trkpt>
      <trkpt lat="43.46066" lon="5.32368">
        <ele>164</ele>
        <time>2013-03-10T09:02:01Z</time>
      </trkpt>
      <trkpt lat="43.46074" lon="5.32357">
        <ele>164</ele>
        <time>2013-03-10T09:02:10Z</time>
      </trkpt>
      <trkpt lat="43.46082" lon="5.32346">
        <ele>164</ele>
        <time>2013-03-10T09:02:19Z</time>
      </trkpt>
      <trkpt lat="43.46091" lon="5.32329">
        <ele>163</ele>
        <time>2013-03-10T09:02:29Z</time>
      </trkpt>
      <trkpt lat="43.46098" lon="5.32316">
        <ele>163</ele>
        <time>2013-03-10T09:02:38Z</time>
      </trkpt>
      <trkpt lat="43.46102" lon="5.32302">
        <ele>163</ele>
        <time>2013-03-10T09:02:47Z</time>
      </trkpt>
      <trkpt lat="43.46101" lon="5.32285">
        <ele>163</ele>
        <time>2013-03-10T09:02:56Z</time>
      </trkpt>
      <trkpt lat="43.46102" lon="5.32269">
        <ele>163</ele>
        <time>2013-03-10T09:03:05Z</time>
      </trkpt>
      <trkpt lat="43.46107" lon="5.32254">
        <ele>162</ele>
        <time>2013-03-10T09:03:14Z</time>
      </trkpt>
      <trkpt lat="43.46117" lon="5.32242">
        <ele>162</ele>
        <time>2013-03-10T09:03:23Z</time>
      </trkpt>
      <trkpt lat="43.46126" lon="5.32237">
        <ele>162</ele>
        <time>2013-03-10T09:03:32Z</time>
      </trkpt>
      <trkpt lat="43.46136" lon="5.32238">
        <ele>162</ele>
        <time>2013-03-10T09:03:41Z</time>
      </trkpt>
      <trkpt lat="43.46147" lon="5.32245">
        <ele>162</ele>
        <time>2013-03-10T09:03:50Z</time>
      </trkpt>
      <trkpt lat="43.46159" lon="5.32253">
        <ele>162</ele>
        <time>2013-03-10T09:04:00Z</time>
      </trkpt>
      <trkpt lat="43.46167" lon="5.32261">
        <ele>162</ele>
        <time>2013-03-10T09:04:10Z</time>
      </trkpt>
      <trkpt lat="43.46175" lon="5.32269">
        <ele>162</ele>
        <time>2013-03-10T09:04:19Z</time>
      </trkpt>
      <trkpt lat="43.46184" lon="5.32277">
        <ele>162</ele>
        <time>2013-03-10T09:04:28Z</time>
      </trkpt>
      <trkpt lat="43.46194" lon="5.32285">
        <ele>162</ele>
        <time>2013-03-10T09:04:37Z</time>
      </trkpt>
      <trkpt lat="43.46197" lon="5.32291">
        <ele>162</ele>
        <time>2013-03-10T09:04:46Z</time>
      </trkpt>
      <trkpt lat="43.46197" lon="5.32293">
        <ele>162</ele>
        <time>2013-03-10T09:04:55Z</time>
      </trkpt>
      <trkpt lat="43.46201" lon="5.32296">
        <ele>162</ele>
        <time>2013-03-10T09:05:04Z</time>
      </trkpt>
      <trkpt lat="43.46204" lon="5.32303">
        <ele>162</ele>
        <time>2013-03-10T09:05:25Z</time>
      </trkpt>
      <trkpt lat="43.46209" lon="5.32307">
        <ele>162</ele>
        <time>2013-03-10T09:05:34Z</time>
      </trkpt>
      <trkpt lat="43.46217" lon="5.32316">
        <ele>162</ele>
        <time>2013-03-10T09:05:44Z</time>
      </trkpt>
      <trkpt lat="43.46227" lon="5.32324">
        <ele>162</ele>
        <time>2013-03-10T09:05:54Z</time>
      </trkpt>
      <trkpt lat="43.46237" lon="5.32331">
        <ele>162</ele>
        <time>2013-03-10T09:06:04Z</time>
      </trkpt>
      <trkpt lat="43.46246" lon="5.32335">
        <ele>162</ele>
        <time>2013-03-10T09:06:13Z</time>
      </trkpt>
      <trkpt lat="43.46256" lon="5.32338">
        <ele>162</ele>
        <time>2013-03-10T09:06:22Z</time>
      </trkpt>
      <trkpt lat="43.46267" lon="5.32338">
        <ele>162</ele>
        <time>2013-03-10T09:06:31Z</time>
      </trkpt>
      <trkpt lat="43.46277" lon="5.32337">
        <ele>162</ele>
        <time>2013-03-10T09:06:40Z</time>
      </trkpt>
      <trkpt lat="43.46288" lon="5.32335">
        <ele>162</ele>
        <time>2013-03-10T09:06:49Z</time>
      </trkpt>
      <trkpt lat="43.46297" lon="5.32335">
        <ele>162</ele>
        <time>2013-03-10T09:06:58Z</time>
      </trkpt>
      <trkpt lat="43.46307" lon="5.32334">
        <ele>161</ele>
        <time>2013-03-10T09:07:07Z</time>
      </trkpt>
      <trkpt lat="43.46319" lon="5.32333">
        <ele>161</ele>
        <time>2013-03-10T09:07:17Z</time>
      </trkpt>
      <trkpt lat="43.46329" lon="5.32331">
        <ele>161</ele>
        <time>2013-03-10T09:07:26Z</time>
      </trkpt>
      <trkpt lat="43.46339" lon="5.32329">
        <ele>161</ele>
        <time>2013-03-10T09:07:35Z</time>
      </trkpt>
      <trkpt lat="43.46348" lon="5.32329">
        <ele>161</ele>
        <time>2013-03-10T09:07:44Z</time>
      </trkpt>
      <trkpt lat="43.46359" lon="5.32328">
        <ele>161</ele>
        <time>2013-03-10T09:07:54Z</time>
      </trkpt>
      <trkpt lat="43.4637" lon="5.32327">
        <ele>161</ele>
        <time>2013-03-10T09:08:04Z</time>
      </trkpt>
      <trkpt lat="43.4638" lon="5.32326">
        <ele>161</ele>
        <time>2013-03-10T09:08:13Z</time>
      </trkpt>
      <trkpt lat="43.46391" lon="5.32325">
        <ele>161</ele>
        <time>2013-03-10T09:08:23Z</time>
      </trkpt>
      <trkpt lat="43.464" lon="5.32323">
        <ele>160</ele>
        <time>2013-03-10T09:08:32Z</time>
      </trkpt>
      <trkpt lat="43.46411" lon="5.32322">
        <ele>160</ele>
        <time>2013-03-10T09:08:41Z</time>
      </trkpt>
      <trkpt lat="43.46423" lon="5.32319">
        <ele>160</ele>
        <time>2013-03-10T09:08:50Z</time>
      </trkpt>
      <trkpt lat="43.46433" lon="5.32318">
        <ele>160</ele>
        <time>2013-03-10T09:08:59Z</time>
      </trkpt>
      <trkpt lat="43.46444" lon="5.32318">
        <ele>160</ele>
        <time>2013-03-10T09:09:08Z</time>
      </trkpt>
      <trkpt lat="43.46455" lon="5.32317">
        <ele>159</ele>
        <time>2013-03-10T09:09:17Z</time>
      </trkpt>
      <trkpt lat="43.46466" lon="5.32316">
        <ele>157</ele>
        <time>2013-03-10T09:09:27Z</time>
      </trkpt>
      <trkpt lat="43.46476" lon="5.32313">
        <ele>156</ele>
        <time>2013-03-10T09:09:36Z</time>
      </trkpt>
      <trkpt lat="43.46487" lon="5.3231">
        <ele>156</ele>
        <time>2013-03-10T09:09:45Z</time>
      </trkpt>
      <trkpt lat="43.46497" lon="5.32303">
        <ele>156</ele>
        <time>2013-03-10T09:09:54Z</time>
      </trkpt>
      <trkpt lat="43.46507" lon="5.32293">
        <ele>156</ele>
        <time>2013-03-10T09:10:04Z</time>
      </trkpt>
      <trkpt lat="43.46516" lon="5.32283">
        <ele>156</ele>
        <time>2013-03-10T09:10:13Z</time>
      </trkpt>
      <trkpt lat="43.46526" lon="5.32272">
        <ele>157</ele>
        <time>2013-03-10T09:10:23Z</time>
      </trkpt>
      <trkpt lat="43.46535" lon="5.32261">
        <ele>158</ele>
        <time>2013-03-10T09:10:32Z</time>
      </trkpt>
      <trkpt lat="43.46544" lon="5.32251">
        <ele>158</ele>
        <time>2013-03-10T09:10:42Z</time>
      </trkpt>
      <trkpt lat="43.46553" lon="5.32244">
        <ele>158</ele>
        <time>2013-03-10T09:10:51Z</time>
      </trkpt>
      <trkpt lat="43.46564" lon="5.3224">
        <ele>158</ele>
        <time>2013-03-10T09:11:01Z</time>
      </trkpt>
      <trkpt lat="43.46575" lon="5.32237">
        <ele>158</ele>
        <time>2013-03-10T09:11:11Z</time>
      </trkpt>
      <trkpt lat="43.46585" lon="5.32234">
        <ele>158</ele>
        <time>2013-03-10T09:11:20Z</time>
      </trkpt>
      <trkpt lat="43.46596" lon="5.32231">
        <ele>158</ele>
        <time>2013-03-10T09:11:29Z</time>
      </trkpt>
      <trkpt lat="43.46607" lon="5.3223">
        <ele>158</ele>
        <time>2013-03-10T09:11:38Z</time>
      </trkpt>
      <trkpt lat="43.46618" lon="5.32226">
        <ele>157</ele>
        <time>2013-03-10T09:11:48Z</time>
      </trkpt>
      <trkpt lat="43.4662" lon="5.32226">
        <ele>157</ele>
        <time>2013-03-10T09:11:57Z</time>
      </trkpt>
      <trkpt lat="43.46629" lon="5.32221">
        <ele>157</ele>
        <time>2013-03-10T09:12:10Z</time>
      </trkpt>
      <trkpt lat="43.4663" lon="5.3222">
        <ele>157</ele>
        <time>2013-03-10T09:12:32Z</time>
      </trkpt>
      <trkpt lat="43.46642" lon="5.32219">
        <ele>157</ele>
        <time>2013-03-10T09:12:41Z</time>
      </trkpt>
      <trkpt lat="43.46654" lon="5.32214">
        <ele>157</ele>
        <time>2013-03-10T09:12:51Z</time>
      </trkpt>
      <trkpt lat="43.46664" lon="5.32214">
        <ele>157</ele>
        <time>2013-03-10T09:13:00Z</time>
      </trkpt>
      <trkpt lat="43.46673" lon="5.32216">
        <ele>157</ele>
        <time>2013-03-10T09:13:09Z</time>
      </trkpt>
      <trkpt lat="43.46683" lon="5.32216">
        <ele>157</ele>
        <time>2013-03-10T09:13:19Z</time>
      </trkpt>
      <trkpt lat="43.46694" lon="5.32218">
        <ele>155</ele>
        <time>2013-03-10T09:13:28Z</time>
      </trkpt>
      <trkpt lat="43.46703" lon="5.3222">
        <ele>155</ele>
        <time>2013-03-10T09:13:37Z</time>
      </trkpt>
      <trkpt lat="43.46711" lon="5.3222">
        <ele>154</ele>
        <time>2013-03-10T09:13:46Z</time>
      </trkpt>
      <trkpt lat="43.46722" lon="5.32221">
        <ele>152</ele>
        <time>2013-03-10T09:13:55Z</time>
      </trkpt>
      <trkpt lat="43.46733" lon="5.32225">
        <ele>152</ele>
        <time>2013-03-10T09:14:04Z</time>
      </trkpt>
      <trkpt lat="43.4674" lon="5.32229">
        <ele>152</ele>
        <time>2013-03-10T09:14:20Z</time>
      </trkpt>
      <trkpt lat="43.46743" lon="5.32233">
        <ele>152</ele>
        <time>2013-03-10T09:14:29Z</time>
      </trkpt>
      <trkpt lat="43.4675" lon="5.32244">
        <ele>152</ele>
        <time>2013-03-10T09:14:39Z</time>
      </trkpt>
      <trkpt lat="43.46759" lon="5.32255">
        <ele>152</ele>
        <time>2013-03-10T09:14:49Z</time>
      </trkpt>
      <trkpt lat="43.46766" lon="5.32255">
        <ele>152</ele>
        <time>2013-03-10T09:15:00Z</time>
      </trkpt>
      <trkpt lat="43.4677" lon="5.3225">
        <ele>152</ele>
        <time>2013-03-10T09:15:10Z</time>
      </trkpt>
      <trkpt lat="43.46776" lon="5.3224">
        <ele>152</ele>
        <time>2013-03-10T09:15:21Z</time>
      </trkpt>
      <trkpt lat="43.46771" lon="5.32227">
        <ele>152</ele>
        <time>2013-03-10T09:15:30Z</time>
      </trkpt>
      <trkpt lat="43.46765" lon="5.32217">
        <ele>152</ele>
        <time>2013-03-10T09:15:40Z</time>
      </trkpt>
      <trkpt lat="43.46765" lon="5.32202">
        <ele>152</ele>
        <time>2013-03-10T09:15:50Z</time>
      </trkpt>
      <trkpt lat="43.46768" lon="5.32189">
        <ele>152</ele>
        <time>2013-03-10T09:16:00Z</time>
      </trkpt>
      <trkpt lat="43.46772" lon="5.32177">
        <ele>152</ele>
        <time>2013-03-10T09:16:10Z</time>
      </trkpt>
      <trkpt lat="43.46778" lon="5.32163">
        <ele>151</ele>
        <time>2013-03-10T09:16:19Z</time>
      </trkpt>
      <trkpt lat="43.46785" lon="5.32154">
        <ele>150</ele>
        <time>2013-03-10T09:16:28Z</time>
      </trkpt>
      <trkpt lat="43.46795" lon="5.32151">
        <ele>149</ele>
        <time>2013-03-10T09:16:38Z</time>
      </trkpt>
      <trkpt lat="43.46803" lon="5.32154">
        <ele>146</ele>
        <time>2013-03-10T09:16:48Z</time>
      </trkpt>
      <trkpt lat="43.46811" lon="5.32165">
        <ele>144</ele>
        <time>2013-03-10T09:16:58Z</time>
      </trkpt>
      <trkpt lat="43.46818" lon="5.32175">
        <ele>144</ele>
        <time>2013-03-10T09:17:08Z</time>
      </trkpt>
      <trkpt lat="43.46823" lon="5.32181">
        <ele>144</ele>
        <time>2013-03-10T09:17:17Z</time>
      </trkpt>
      <trkpt lat="43.46827" lon="5.32196">
        <ele>144</ele>
        <time>2013-03-10T09:17:26Z</time>
      </trkpt>
      <trkpt lat="43.46835" lon="5.3221">
        <ele>144</ele>
        <time>2013-03-10T09:17:35Z</time>
      </trkpt>
      <trkpt lat="43.46841" lon="5.32223">
        <ele>144</ele>
        <time>2013-03-10T09:17:44Z</time>
      </trkpt>
      <trkpt lat="43.46851" lon="5.32232">
        <ele>144</ele>
        <time>2013-03-10T09:17:54Z</time>
      </trkpt>
      <trkpt lat="43.46859" lon="5.32238">
        <ele>144</ele>
        <time>2013-03-10T09:18:03Z</time>
      </trkpt>
      <trkpt lat="43.4687" lon="5.32241">
        <ele>144</ele>
        <time>2013-03-10T09:18:12Z</time>
      </trkpt>
      <trkpt lat="43.46881" lon="5.32241">
        <ele>142</ele>
        <time>2013-03-10T09:18:21Z</time>
      </trkpt>
      <trkpt lat="43.46892" lon="5.3224">
        <ele>140</ele>
        <time>2013-03-10T09:18:31Z</time>
      </trkpt>
      <trkpt lat="43.46901" lon="5.32239">
        <ele>137</ele>
        <time>2013-03-10T09:18:40Z</time>
      </trkpt>
      <trkpt lat="43.46912" lon="5.32233">
        <ele>137</ele>
        <time>2013-03-10T09:18:49Z</time>
      </trkpt>
      <trkpt lat="43.46923" lon="5.32225">
        <ele>137</ele>
        <time>2013-03-10T09:18:59Z</time>
      </trkpt>
      <trkpt lat="43.46932" lon="5.32221">
        <ele>137</ele>
        <time>2013-03-10T09:19:09Z</time>
      </trkpt>
      <trkpt lat="43.46941" lon="5.32217">
        <ele>137</ele>
        <time>2013-03-10T09:19:18Z</time>
      </trkpt>
      <trkpt lat="43.46949" lon="5.32212">
        <ele>137</ele>
        <time>2013-03-10T09:19:27Z</time>
      </trkpt>
      <trkpt lat="43.46961" lon="5.32206">
        <ele>137</ele>
        <time>2013-03-10T09:19:36Z</time>
      </trkpt>
      <trkpt lat="43.4697" lon="5.32202">
        <ele>137</ele>
        <time>2013-03-10T09:19:45Z</time>
      </trkpt>
      <trkpt lat="43.46979" lon="5.32196">
        <ele>133</ele>
        <time>2013-03-10T09:19:55Z</time>
      </trkpt>
      <trkpt lat="43.46988" lon="5.32192">
        <ele>133</ele>
        <time>2013-03-10T09:20:05Z</time>
      </trkpt>
      <trkpt lat="43.46995" lon="5.32186">
        <ele>133</ele>
        <time>2013-03-10T09:20:14Z</time>
      </trkpt>
      <trkpt lat="43.47005" lon="5.32182">
        <ele>133</ele>
        <time>2013-03-10T09:20:24Z</time>
      </trkpt>
      <trkpt lat="43.47015" lon="5.32176">
        <ele>133</ele>
        <time>2013-03-10T09:20:35Z</time>
      </trkpt>
      <trkpt lat="43.47024" lon="5.32173">
        <ele>133</ele>
        <time>2013-03-10T09:20:44Z</time>
      </trkpt>
      <trkpt lat="43.47034" lon="5.32168">
        <ele>133</ele>
        <time>2013-03-10T09:20:54Z</time>
      </trkpt>
      <trkpt lat="43.47044" lon="5.32163">
        <ele>133</ele>
        <time>2013-03-10T09:21:03Z</time>
      </trkpt>
      <trkpt lat="43.47055" lon="5.32159">
        <ele>133</ele>
        <time>2013-03-10T09:21:12Z</time>
      </trkpt>
      <trkpt lat="43.47066" lon="5.32153">
        <ele>133</ele>
        <time>2013-03-10T09:21:22Z</time>
      </trkpt>
      <trkpt lat="43.47077" lon="5.32149">
        <ele>133</ele>
        <time>2013-03-10T09:21:32Z</time>
      </trkpt>
      <trkpt lat="43.47087" lon="5.32143">
        <ele>133</ele>
        <time>2013-03-10T09:21:42Z</time>
      </trkpt>
      <trkpt lat="43.47099" lon="5.32139">
        <ele>133</ele>
        <time>2013-03-10T09:21:52Z</time>
      </trkpt>
      <trkpt lat="43.47108" lon="5.32133">
        <ele>133</ele>
        <time>2013-03-10T09:22:01Z</time>
      </trkpt>
      <trkpt lat="43.47119" lon="5.32128">
        <ele>133</ele>
        <time>2013-03-10T09:22:11Z</time>
      </trkpt>
      <trkpt lat="43.47129" lon="5.32122">
        <ele>133</ele>
        <time>2013-03-10T09:22:21Z</time>
      </trkpt>
      <trkpt lat="43.47139" lon="5.32117">
        <ele>133</ele>
        <time>2013-03-10T09:22:30Z</time>
      </trkpt>
      <trkpt lat="43.47149" lon="5.32112">
        <ele>133</ele>
        <time>2013-03-10T09:22:39Z</time>
      </trkpt>
      <trkpt lat="43.47153" lon="5.3211">
        <ele>136</ele>
        <time>2013-03-10T09:22:50Z</time>
      </trkpt>
      <trkpt lat="43.47153" lon="5.32109">
        <ele>143</ele>
        <time>2013-03-10T09:23:13Z</time>
      </trkpt>
      <trkpt lat="43.47157" lon="5.32106">
        <ele>143</ele>
        <time>2013-03-10T09:23:22Z</time>
      </trkpt>
      <trkpt lat="43.47157" lon="5.32097">
        <ele>143</ele>
        <time>2013-03-10T09:23:31Z</time>
      </trkpt>
      <trkpt lat="43.47155" lon="5.32084">
        <ele>143</ele>
        <time>2013-03-10T09:23:40Z</time>
      </trkpt>
      <trkpt lat="43.47154" lon="5.32071">
        <ele>143</ele>
        <time>2013-03-10T09:23:49Z</time>
      </trkpt>
      <trkpt lat="43.47154" lon="5.32058">
        <ele>143</ele>
        <time>2013-03-10T09:23:59Z</time>
      </trkpt>
      <trkpt lat="43.47152" lon="5.32046">
        <ele>143</ele>
        <time>2013-03-10T09:24:08Z</time>
      </trkpt>
      <trkpt lat="43.47145" lon="5.32032">
        <ele>143</ele>
        <time>2013-03-10T09:24:18Z</time>
      </trkpt>
      <trkpt lat="43.4714" lon="5.32019">
        <ele>143</ele>
        <time>2013-03-10T09:24:29Z</time>
      </trkpt>
      <trkpt lat="43.47137" lon="5.32007">
        <ele>143</ele>
        <time>2013-03-10T09:24:39Z</time>
      </trkpt>
      <trkpt lat="43.47134" lon="5.31995">
        <ele>143</ele>
        <time>2013-03-10T09:24:48Z</time>
      </trkpt>
      <trkpt lat="43.4713" lon="5.31982">
        <ele>143</ele>
        <time>2013-03-10T09:24:58Z</time>
      </trkpt>
      <trkpt lat="43.47125" lon="5.31968">
        <ele>143</ele>
        <time>2013-03-10T09:25:08Z</time>
      </trkpt>
      <trkpt lat="43.4712" lon="5.31954">
        <ele>143</ele>
        <time>2013-03-10T09:25:18Z</time>
      </trkpt>
      <trkpt lat="43.47115" lon="5.3194">
        <ele>143</ele>
        <time>2013-03-10T09:25:28Z</time>
      </trkpt>
      <trkpt lat="43.4711" lon="5.31927">
        <ele>144</ele>
        <time>2013-03-10T09:25:38Z</time>
      </trkpt>
      <trkpt lat="43.47109" lon="5.31915">
        <ele>144</ele>
        <time>2013-03-10T09:25:47Z</time>
      </trkpt>
      <trkpt lat="43.47106" lon="5.31902">
        <ele>145</ele>
        <time>2013-03-10T09:25:56Z</time>
      </trkpt>
      <trkpt lat="43.47101" lon="5.3189">
        <ele>146</ele>
        <time>2013-03-10T09:26:06Z</time>
      </trkpt>
      <trkpt lat="43.47098" lon="5.3188">
        <ele>147</ele>
        <time>2013-03-10T09:26:15Z</time>
      </trkpt>
      <trkpt lat="43.47094" lon="5.31866">
        <ele>148</ele>
        <time>2013-03-10T09:26:25Z</time>
      </trkpt>
      <trkpt lat="43.47093" lon="5.31854">
        <ele>149</ele>
        <time>2013-03-10T09:26:34Z</time>
      </trkpt>
      <trkpt lat="43.47092" lon="5.31838">
        <ele>150</ele>
        <time>2013-03-10T09:26:44Z</time>
      </trkpt>
      <trkpt lat="43.4709" lon="5.31822">
        <ele>150</ele>
        <time>2013-03-10T09:26:54Z</time>
      </trkpt>
      <trkpt lat="43.47089" lon="5.31808">
        <ele>151</ele>
        <time>2013-03-10T09:27:03Z</time>
      </trkpt>
      <trkpt lat="43.47089" lon="5.31794">
        <ele>152</ele>
        <time>2013-03-10T09:27:12Z</time>
      </trkpt>
      <trkpt lat="43.47091" lon="5.31781">
        <ele>152</ele>
        <time>2013-03-10T09:27:22Z</time>
      </trkpt>
      <trkpt lat="43.47092" lon="5.31769">
        <ele>153</ele>
        <time>2013-03-10T09:27:31Z</time>
      </trkpt>
      <trkpt lat="43.47094" lon="5.31754">
        <ele>154</ele>
        <time>2013-03-10T09:27:40Z</time>
      </trkpt>
      <trkpt lat="43.47096" lon="5.31742">
        <ele>155</ele>
        <time>2013-03-10T09:27:50Z</time>
      </trkpt>
      <trkpt lat="43.47097" lon="5.31737">
        <ele>156</ele>
        <time>2013-03-10T09:28:00Z</time>
      </trkpt>
      <trkpt lat="43.47104" lon="5.31729">
        <ele>156</ele>
        <time>2013-03-10T09:28:17Z</time>
      </trkpt>
      <trkpt lat="43.47105" lon="5.31727">
        <ele>156</ele>
        <time>2013-03-10T09:28:27Z</time>
      </trkpt>
      <trkpt lat="43.47105" lon="5.31725">
        <ele>156</ele>
        <time>2013-03-10T09:28:36Z</time>
      </trkpt>
      <trkpt lat="43.47105" lon="5.3172">
        <ele>156</ele>
        <time>2013-03-10T09:28:47Z</time>
      </trkpt>
      <trkpt lat="43.47111" lon="5.31719">
        <ele>156</ele>
        <time>2013-03-10T09:28:58Z</time>
      </trkpt>
      <trkpt lat="43.47121" lon="5.31721">
        <ele>156</ele>
        <time>2013-03-10T09:29:08Z</time>
      </trkpt>
      <trkpt lat="43.4713" lon="5.31724">
        <ele>155</ele>
        <time>2013-03-10T09:29:17Z</time>
      </trkpt>
      <trkpt lat="43.47139" lon="5.31727">
        <ele>154</ele>
        <time>2013-03-10T09:29:26Z</time>
      </trkpt>
      <trkpt lat="43.47151" lon="5.31727">
        <ele>154</ele>
        <time>2013-03-10T09:29:36Z</time>
      </trkpt>
      <trkpt lat="43.47163" lon="5.31728">
        <ele>154</ele>
        <time>2013-03-10T09:29:45Z</time>
      </trkpt>
      <trkpt lat="43.47173" lon="5.31728">
        <ele>154</ele>
        <time>2013-03-10T09:29:54Z</time>
      </trkpt>
      <trkpt lat="43.47184" lon="5.31729">
        <ele>154</ele>
        <time>2013-03-10T09:30:03Z</time>
      </trkpt>
      <trkpt lat="43.47196" lon="5.3173">
        <ele>154</ele>
        <time>2013-03-10T09:30:12Z</time>
      </trkpt>
      <trkpt lat="43.47207" lon="5.31731">
        <ele>154</ele>
        <time>2013-03-10T09:30:21Z</time>
      </trkpt>
      <trkpt lat="43.47218" lon="5.31732">
        <ele>154</ele>
        <time>2013-03-10T09:30:30Z</time>
      </trkpt>
      <trkpt lat="43.47228" lon="5.3173">
        <ele>154</ele>
        <time>2013-03-10T09:30:41Z</time>
      </trkpt>
      <trkpt lat="43.47239" lon="5.31726">
        <ele>154</ele>
        <time>2013-03-10T09:30:52Z</time>
      </trkpt>
      <trkpt lat="43.47251" lon="5.31721">
        <ele>155</ele>
        <time>2013-03-10T09:31:02Z</time>
      </trkpt>
      <trkpt lat="43.47261" lon="5.31715">
        <ele>156</ele>
        <time>2013-03-10T09:31:11Z</time>
      </trkpt>
      <trkpt lat="43.47272" lon="5.31706">
        <ele>157</ele>
        <time>2013-03-10T09:31:21Z</time>
      </trkpt>
      <trkpt lat="43.47283" lon="5.31698">
        <ele>159</ele>
        <time>2013-03-10T09:31:31Z</time>
      </trkpt>
      <trkpt lat="43.47294" lon="5.31689">
        <ele>161</ele>
        <time>2013-03-10T09:31:41Z</time>
      </trkpt>
      <trkpt lat="43.47304" lon="5.31679">
        <ele>161</ele>
        <time>2013-03-10T09:31:51Z</time>
      </trkpt>
      <trkpt lat="43.47314" lon="5.31672">
        <ele>161</ele>
        <time>2013-03-10T09:32:00Z</time>
      </trkpt>
      <trkpt lat="43.47326" lon="5.31668">
        <ele>161</ele>
        <time>2013-03-10T09:32:09Z</time>
      </trkpt>
      <trkpt lat="43.47337" lon="5.31668">
        <ele>161</ele>
        <time>2013-03-10T09:32:18Z</time>
      </trkpt>
      <trkpt lat="43.47348" lon="5.3167">
        <ele>161</ele>
        <time>2013-03-10T09:32:28Z</time>
      </trkpt>
      <trkpt lat="43.47359" lon="5.31675">
        <ele>161</ele>
        <time>2013-03-10T09:32:38Z</time>
      </trkpt>
      <trkpt lat="43.47363" lon="5.31678">
        <ele>161</ele>
        <time>2013-03-10T09:32:52Z</time>
      </trkpt>
      <trkpt lat="43.47366" lon="5.3168">
        <ele>161</ele>
        <time>2013-03-10T09:33:02Z</time>
      </trkpt>
      <trkpt lat="43.47377" lon="5.31687">
        <ele>160</ele>
        <time>2013-03-10T09:33:12Z</time>
      </trkpt>
      <trkpt lat="43.47386" lon="5.31695">
        <ele>159</ele>
        <time>2013-03-10T09:33:21Z</time>
      </trkpt>
      <trkpt lat="43.47395" lon="5.31702">
        <ele>158</ele>
        <time>2013-03-10T09:33:30Z</time>
      </trkpt>
      <trkpt lat="43.474" lon="5.31705">
        <ele>156</ele>
        <time>2013-03-10T09:33:40Z</time>
      </trkpt>
      <trkpt lat="43.47411" lon="5.3171">
        <ele>156</ele>
        <time>2013-03-10T09:33:51Z</time>
      </trkpt>
      <trkpt lat="43.47421" lon="5.31712">
        <ele>156</ele>
        <time>2013-03-10T09:34:00Z</time>
      </trkpt>
      <trkpt lat="43.47432" lon="5.31711">
        <ele>156</ele>
        <time>2013-03-10T09:34:09Z</time>
      </trkpt>
      <trkpt lat="43.47443" lon="5.31706">
        <ele>156</ele>
        <time>2013-03-10T09:34:19Z</time>
      </trkpt>
      <trkpt lat="43.47454" lon="5.31701">
        <ele>156</ele>
        <time>2013-03-10T09:34:28Z</time>
      </trkpt>
      <trkpt lat="43.47465" lon="5.31694">
        <ele>156</ele>
        <time>2013-03-10T09:34:38Z</time>
      </trkpt>
      <trkpt lat="43.47477" lon="5.31686">
        <ele>156</ele>
        <time>2013-03-10T09:34:48Z</time>
      </trkpt>
      <trkpt lat="43.47488" lon="5.31679">
        <ele>157</ele>
        <time>2013-03-10T09:34:58Z</time>
      </trkpt>
      <trkpt lat="43.47498" lon="5.31674">
        <ele>157</ele>
        <time>2013-03-10T09:35:07Z</time>
      </trkpt>
      <trkpt lat="43.47509" lon="5.31669">
        <ele>157</ele>
        <time>2013-03-10T09:35:16Z</time>
      </trkpt>
      <trkpt lat="43.47518" lon="5.31666">
        <ele>157</ele>
        <time>2013-03-10T09:35:25Z</time>
      </trkpt>
      <trkpt lat="43.47528" lon="5.31661">
        <ele>157</ele>
        <time>2013-03-10T09:35:34Z</time>
      </trkpt>
      <trkpt lat="43.47538" lon="5.31657">
        <ele>157</ele>
        <time>2013-03-10T09:35:43Z</time>
      </trkpt>
      <trkpt lat="43.47548" lon="5.3165">
        <ele>156</ele>
        <time>2013-03-10T09:35:52Z</time>
      </trkpt>
      <trkpt lat="43.47559" lon="5.31644">
        <ele>156</ele>
        <time>2013-03-10T09:36:01Z</time>
      </trkpt>
      <trkpt lat="43.4757" lon="5.31638">
        <ele>156</ele>
        <time>2013-03-10T09:36:10Z</time>
      </trkpt>
      <trkpt lat="43.47579" lon="5.3163">
        <ele>156</ele>
        <time>2013-03-10T09:36:19Z</time>
      </trkpt>
      <trkpt lat="43.47588" lon="5.31619">
        <ele>156</ele>
        <time>2013-03-10T09:36:29Z</time>
      </trkpt>
      <trkpt lat="43.47593" lon="5.31608">
        <ele>156</ele>
        <time>2013-03-10T09:36:38Z</time>
      </trkpt>
      <trkpt lat="43.47598" lon="5.31597">
        <ele>156</ele>
        <time>2013-03-10T09:36:48Z</time>
      </trkpt>
      <trkpt lat="43.47604" lon="5.31585">
        <ele>156</ele>
        <time>2013-03-10T09:36:57Z</time>
      </trkpt>
      <trkpt lat="43.47609" lon="5.31571">
        <ele>156</ele>
        <time>2013-03-10T09:37:07Z</time>
      </trkpt>
      <trkpt lat="43.47614" lon="5.31558">
        <ele>155</ele>
        <time>2013-03-10T09:37:16Z</time>
      </trkpt>
      <trkpt lat="43.47617" lon="5.31543">
        <ele>154</ele>
        <time>2013-03-10T09:37:25Z</time>
      </trkpt>
      <trkpt lat="43.47627" lon="5.31536">
        <ele>154</ele>
        <time>2013-03-10T09:37:34Z</time>
      </trkpt>
      <trkpt lat="43.47633" lon="5.31528">
        <ele>154</ele>
        <time>2013-03-10T09:37:44Z</time>
      </trkpt>
      <trkpt lat="43.47636" lon="5.31523">
        <ele>154</ele>
        <time>2013-03-10T09:37:56Z</time>
      </trkpt>
      <trkpt lat="43.47637" lon="5.31513">
        <ele>154</ele>
        <time>2013-03-10T09:38:05Z</time>
      </trkpt>
      <trkpt lat="43.47642" lon="5.31504">
        <ele>154</ele>
        <time>2013-03-10T09:38:15Z</time>
      </trkpt>
      <trkpt lat="43.47646" lon="5.31497">
        <ele>154</ele>
        <time>2013-03-10T09:38:25Z</time>
      </trkpt>
      <trkpt lat="43.47649" lon="5.3149">
        <ele>153</ele>
        <time>2013-03-10T09:38:35Z</time>
      </trkpt>
      <trkpt lat="43.47655" lon="5.31474">
        <ele>153</ele>
        <time>2013-03-10T09:38:45Z</time>
      </trkpt>
      <trkpt lat="43.4766" lon="5.31464">
        <ele>153</ele>
        <time>2013-03-10T09:38:56Z</time>
      </trkpt>
      <trkpt lat="43.47662" lon="5.31461">
        <ele>153</ele>
        <time>2013-03-10T09:39:13Z</time>
      </trkpt>
      <trkpt lat="43.47663" lon="5.31459">
        <ele>153</ele>
        <time>2013-03-10T09:39:37Z</time>
      </trkpt>
      <trkpt lat="43.47664" lon="5.31458">
        <ele>153</ele>
        <time>2013-03-10T09:40:03Z</time>
      </trkpt>
      <trkpt lat="43.47667" lon="5.31448">
        <ele>153</ele>
        <time>2013-03-10T09:40:12Z</time>
      </trkpt>
      <trkpt lat="43.47673" lon="5.31437">
        <ele>153</ele>
        <time>2013-03-10T09:40:21Z</time>
      </trkpt>
      <trkpt lat="43.47681" lon="5.31429">
        <ele>153</ele>
        <time>2013-03-10T09:40:32Z</time>
      </trkpt>
      <trkpt lat="43.47688" lon="5.31425">
        <ele>153</ele>
        <time>2013-03-10T09:40:44Z</time>
      </trkpt>
      <trkpt lat="43.47689" lon="5.31425">
        <ele>156</ele>
        <time>2013-03-10T09:40:55Z</time>
      </trkpt>
      <trkpt lat="43.47695" lon="5.31421">
        <ele>157</ele>
        <time>2013-03-10T09:41:04Z</time>
      </trkpt>
      <trkpt lat="43.47705" lon="5.31419">
        <ele>157</ele>
        <time>2013-03-10T09:41:13Z</time>
      </trkpt>
      <trkpt lat="43.47714" lon="5.31415">
        <ele>157</ele>
        <time>2013-03-10T09:41:22Z</time>
      </trkpt>
      <trkpt lat="43.47723" lon="5.3141">
        <ele>157</ele>
        <time>2013-03-10T09:41:31Z</time>
      </trkpt>
      <trkpt lat="43.47732" lon="5.31407">
        <ele>157</ele>
        <time>2013-03-10T09:41:41Z</time>
      </trkpt>
      <trkpt lat="43.47743" lon="5.31403">
        <ele>157</ele>
        <time>2013-03-10T09:41:50Z</time>
      </trkpt>
      <trkpt lat="43.47752" lon="5.31401">
        <ele>157</ele>
        <time>2013-03-10T09:42:00Z</time>
      </trkpt>
      <trkpt lat="43.47762" lon="5.31399">
        <ele>157</ele>
        <time>2013-03-10T09:42:09Z</time>
      </trkpt>
      <trkpt lat="43.47773" lon="5.31395">
        <ele>157</ele>
        <time>2013-03-10T09:42:18Z</time>
      </trkpt>
      <trkpt lat="43.47782" lon="5.31391">
        <ele>157</ele>
        <time>2013-03-10T09:42:27Z</time>
      </trkpt>
      <trkpt lat="43.47794" lon="5.31386">
        <ele>157</ele>
        <time>2013-03-10T09:42:36Z</time>
      </trkpt>
      <trkpt lat="43.47806" lon="5.31382">
        <ele>157</ele>
        <time>2013-03-10T09:42:46Z</time>
      </trkpt>
      <trkpt lat="43.47818" lon="5.31378">
        <ele>157</ele>
        <time>2013-03-10T09:42:55Z</time>
      </trkpt>
      <trkpt lat="43.47828" lon="5.31375">
        <ele>157</ele>
        <time>2013-03-10T09:43:04Z</time>
      </trkpt>
      <trkpt lat="43.47838" lon="5.31371">
        <ele>157</ele>
        <time>2013-03-10T09:43:14Z</time>
      </trkpt>
      <trkpt lat="43.47844" lon="5.31367">
        <ele>157</ele>
        <time>2013-03-10T09:43:23Z</time>
      </trkpt>
      <trkpt lat="43.47849" lon="5.31361">
        <ele>157</ele>
        <time>2013-03-10T09:43:50Z</time>
      </trkpt>
      <trkpt lat="43.47852" lon="5.31365">
        <ele>157</ele>
        <time>2013-03-10T09:43:59Z</time>
      </trkpt>
      <trkpt lat="43.47864" lon="5.31355">
        <ele>157</ele>
        <time>2013-03-10T09:44:08Z</time>
      </trkpt>
      <trkpt lat="43.47874" lon="5.31346">
        <ele>157</ele>
        <time>2013-03-10T09:44:17Z</time>
      </trkpt>
      <trkpt lat="43.47885" lon="5.31336">
        <ele>158</ele>
        <time>2013-03-10T09:44:27Z</time>
      </trkpt>
      <trkpt lat="43.47895" lon="5.3133">
        <ele>158</ele>
        <time>2013-03-10T09:44:37Z</time>
      </trkpt>
      <trkpt lat="43.47907" lon="5.31325">
        <ele>158</ele>
        <time>2013-03-10T09:44:46Z</time>
      </trkpt>
      <trkpt lat="43.4792" lon="5.31321">
        <ele>158</ele>
        <time>2013-03-10T09:44:55Z</time>
      </trkpt>
      <trkpt lat="43.47931" lon="5.31318">
        <ele>158</ele>
        <time>2013-03-10T09:45:04Z</time>
      </trkpt>
      <trkpt lat="43.47943" lon="5.31313">
        <ele>158</ele>
        <time>2013-03-10T09:45:13Z</time>
      </trkpt>
      <trkpt lat="43.47955" lon="5.31309">
        <ele>158</ele>
        <time>2013-03-10T09:45:22Z</time>
      </trkpt>
      <trkpt lat="43.47966" lon="5.31305">
        <ele>158</ele>
        <time>2013-03-10T09:45:31Z</time>
      </trkpt>
      <trkpt lat="43.47977" lon="5.31301">
        <ele>158</ele>
        <time>2013-03-10T09:45:40Z</time>
      </trkpt>
      <trkpt lat="43.47985" lon="5.31297">
        <ele>158</ele>
        <time>2013-03-10T09:45:52Z</time>
      </trkpt>
      <trkpt lat="43.47995" lon="5.31292">
        <ele>158</ele>
        <time>2013-03-10T09:46:02Z</time>
      </trkpt>
      <trkpt lat="43.48001" lon="5.31289">
        <ele>157</ele>
        <time>2013-03-10T09:46:11Z</time>
      </trkpt>
      <trkpt lat="43.4801" lon="5.31282">
        <ele>156</ele>
        <time>2013-03-10T09:46:21Z</time>
      </trkpt>
      <trkpt lat="43.48022" lon="5.31275">
        <ele>156</ele>
        <time>2013-03-10T09:46:31Z</time>
      </trkpt>
      <trkpt lat="43.48032" lon="5.31273">
        <ele>156</ele>
        <time>2013-03-10T09:46:40Z</time>
      </trkpt>
      <trkpt lat="43.48041" lon="5.31272">
        <ele>157</ele>
        <time>2013-03-10T09:46:49Z</time>
      </trkpt>
      <trkpt lat="43.48049" lon="5.31276">
        <ele>158</ele>
        <time>2013-03-10T09:47:06Z</time>
      </trkpt>
      <trkpt lat="43.48048" lon="5.31277">
        <ele>158</ele>
        <time>2013-03-10T09:47:16Z</time>
      </trkpt>
      <trkpt lat="43.48053" lon="5.31285">
        <ele>161</ele>
        <time>2013-03-10T09:47:27Z</time>
      </trkpt>
      <trkpt lat="43.48059" lon="5.3129">
        <ele>161</ele>
        <time>2013-03-10T09:47:38Z</time>
      </trkpt>
      <trkpt lat="43.48067" lon="5.31288">
        <ele>161</ele>
        <time>2013-03-10T09:47:48Z</time>
      </trkpt>
      <trkpt lat="43.48073" lon="5.31285">
        <ele>161</ele>
        <time>2013-03-10T09:47:58Z</time>
      </trkpt>
      <trkpt lat="43.48081" lon="5.31282">
        <ele>161</ele>
        <time>2013-03-10T09:48:08Z</time>
      </trkpt>
      <trkpt lat="43.48089" lon="5.31279">
        <ele>161</ele>
        <time>2013-03-10T09:48:18Z</time>
      </trkpt>
      <trkpt lat="43.48098" lon="5.31278">
        <ele>161</ele>
        <time>2013-03-10T09:48:28Z</time>
      </trkpt>
      <trkpt lat="43.48109" lon="5.31276">
        <ele>161</ele>
        <time>2013-03-10T09:48:38Z</time>
      </trkpt>
      <trkpt lat="43.48117" lon="5.31275">
        <ele>161</ele>
        <time>2013-03-10T09:48:47Z</time>
      </trkpt>
      <trkpt lat="43.48126" lon="5.31274">
        <ele>161</ele>
        <time>2013-03-10T09:48:56Z</time>
      </trkpt>
      <trkpt lat="43.48136" lon="5.31274">
        <ele>161</ele>
        <time>2013-03-10T09:49:05Z</time>
      </trkpt>
      <trkpt lat="43.48147" lon="5.31274">
        <ele>161</ele>
        <time>2013-03-10T09:49:15Z</time>
      </trkpt>
      <trkpt lat="43.48157" lon="5.31273">
        <ele>161</ele>
        <time>2013-03-10T09:49:24Z</time>
      </trkpt>
      <trkpt lat="43.48166" lon="5.31272">
        <ele>161</ele>
        <time>2013-03-10T09:49:33Z</time>
      </trkpt>
      <trkpt lat="43.48176" lon="5.31271">
        <ele>161</ele>
        <time>2013-03-10T09:49:42Z</time>
      </trkpt>
      <trkpt lat="43.48186" lon="5.3127">
        <ele>161</ele>
        <time>2013-03-10T09:49:51Z</time>
      </trkpt>
      <trkpt lat="43.48197" lon="5.31268">
        <ele>161</ele>
        <time>2013-03-10T09:50:00Z</time>
      </trkpt>
      <trkpt lat="43.48209" lon="5.31265">
        <ele>161</ele>
        <time>2013-03-10T09:50:10Z</time>
      </trkpt>
      <trkpt lat="43.4822" lon="5.31262">
        <ele>161</ele>
        <time>2013-03-10T09:50:19Z</time>
      </trkpt>
      <trkpt lat="43.48229" lon="5.3126">
        <ele>161</ele>
        <time>2013-03-10T09:50:28Z</time>
      </trkpt>
      <trkpt lat="43.4824" lon="5.31257">
        <ele>161</ele>
        <time>2013-03-10T09:50:37Z</time>
      </trkpt>
      <trkpt lat="43.48251" lon="5.31252">
        <ele>161</ele>
        <time>2013-03-10T09:50:47Z</time>
      </trkpt>
      <trkpt lat="43.48262" lon="5.31246">
        <ele>161</ele>
        <time>2013-03-10T09:50:57Z</time>
      </trkpt>
      <trkpt lat="43.48271" lon="5.3124">
        <ele>161</ele>
        <time>2013-03-10T09:51:06Z</time>
      </trkpt>
      <trkpt lat="43.4828" lon="5.31234">
        <ele>161</ele>
        <time>2013-03-10T09:51:15Z</time>
      </trkpt>
      <trkpt lat="43.48289" lon="5.3123">
        <ele>161</ele>
        <time>2013-03-10T09:51:24Z</time>
      </trkpt>
      <trkpt lat="43.48298" lon="5.31225">
        <ele>161</ele>
        <time>2013-03-10T09:51:33Z</time>
      </trkpt>
      <trkpt lat="43.48308" lon="5.31219">
        <ele>161</ele>
        <time>2013-03-10T09:51:42Z</time>
      </trkpt>
      <trkpt lat="43.48318" lon="5.31214">
        <ele>161</ele>
        <time>2013-03-10T09:51:51Z</time>
      </trkpt>
      <trkpt lat="43.48328" lon="5.31207">
        <ele>161</ele>
        <time>2013-03-10T09:52:01Z</time>
      </trkpt>
      <trkpt lat="43.48338" lon="5.31202">
        <ele>161</ele>
        <time>2013-03-10T09:52:10Z</time>
      </trkpt>
      <trkpt lat="43.48348" lon="5.31199">
        <ele>161</ele>
        <time>2013-03-10T09:52:19Z</time>
      </trkpt>
      <trkpt lat="43.48358" lon="5.31203">
        <ele>161</ele>
        <time>2013-03-10T09:52:28Z</time>
      </trkpt>
      <trkpt lat="43.48367" lon="5.31199">
        <ele>161</ele>
        <time>2013-03-10T09:52:38Z</time>
      </trkpt>
      <trkpt lat="43.48375" lon="5.3119">
        <ele>161</ele>
        <time>2013-03-10T09:52:48Z</time>
      </trkpt>
      <trkpt lat="43.48382" lon="5.31185">
        <ele>161</ele>
        <time>2013-03-10T09:52:58Z</time>
      </trkpt>
      <trkpt lat="43.4839" lon="5.31192">
        <ele>161</ele>
        <time>2013-03-10T09:53:08Z</time>
      </trkpt>
      <trkpt lat="43.48392" lon="5.31198">
        <ele>161</ele>
        <time>2013-03-10T09:53:20Z</time>
      </trkpt>
      <trkpt lat="43.48394" lon="5.31201">
        <ele>161</ele>
        <time>2013-03-10T09:53:30Z</time>
      </trkpt>
      <trkpt lat="43.48394" lon="5.31205">
        <ele>161</ele>
        <time>2013-03-10T09:53:40Z</time>
      </trkpt>
      <trkpt lat="43.48397" lon="5.31217">
        <ele>161</ele>
        <time>2013-03-10T09:53:50Z</time>
      </trkpt>
      <trkpt lat="43.48402" lon="5.3123">
        <ele>161</ele>
        <time>2013-03-10T09:54:00Z</time>
      </trkpt>
      <trkpt lat="43.48408" lon="5.31241">
        <ele>161</ele>
        <time>2013-03-10T09:54:10Z</time>
      </trkpt>
      <trkpt lat="43.48414" lon="5.3125">
        <ele>161</ele>
        <time>2013-03-10T09:54:19Z</time>
      </trkpt>
      <trkpt lat="43.48422" lon="5.31263">
        <ele>161</ele>
        <time>2013-03-10T09:54:29Z</time>
      </trkpt>
      <trkpt lat="43.48429" lon="5.31275">
        <ele>161</ele>
        <time>2013-03-10T09:54:38Z</time>
      </trkpt>
      <trkpt lat="43.48436" lon="5.31286">
        <ele>161</ele>
        <time>2013-03-10T09:54:47Z</time>
      </trkpt>
      <trkpt lat="43.48442" lon="5.31298">
        <ele>161</ele>
        <time>2013-03-10T09:54:56Z</time>
      </trkpt>
      <trkpt lat="43.48448" lon="5.31311">
        <ele>161</ele>
        <time>2013-03-10T09:55:05Z</time>
      </trkpt>
      <trkpt lat="43.48453" lon="5.31323">
        <ele>161</ele>
        <time>2013-03-10T09:55:14Z</time>
      </trkpt>
      <trkpt lat="43.48459" lon="5.31335">
        <ele>160</ele>
        <time>2013-03-10T09:55:23Z</time>
      </trkpt>
      <trkpt lat="43.4847" lon="5.31335">
        <ele>159</ele>
        <time>2013-03-10T09:55:33Z</time>
      </trkpt>
      <trkpt lat="43.48476" lon="5.31322">
        <ele>157</ele>
        <time>2013-03-10T09:55:42Z</time>
      </trkpt>
      <trkpt lat="43.4848" lon="5.31308">
        <ele>154</ele>
        <time>2013-03-10T09:55:51Z</time>
      </trkpt>
      <trkpt lat="43.48484" lon="5.31295">
        <ele>153</ele>
        <time>2013-03-10T09:56:00Z</time>
      </trkpt>
      <trkpt lat="43.48484" lon="5.3128">
        <ele>152</ele>
        <time>2013-03-10T09:56:09Z</time>
      </trkpt>
      <trkpt lat="43.48484" lon="5.31265">
        <ele>152</ele>
        <time>2013-03-10T09:56:18Z</time>
      </trkpt>
      <trkpt lat="43.4849" lon="5.31264">
        <ele>149</ele>
        <time>2013-03-10T09:56:28Z</time>
      </trkpt>
      <trkpt lat="43.48494" lon="5.31277">
        <ele>147</ele>
        <time>2013-03-10T09:56:37Z</time>
      </trkpt>
      <trkpt lat="43.48499" lon="5.31292">
        <ele>146</ele>
        <time>2013-03-10T09:56:46Z</time>
      </trkpt>
      <trkpt lat="43.48504" lon="5.31306">
        <ele>146</ele>
        <time>2013-03-10T09:56:55Z</time>
      </trkpt>
      <trkpt lat="43.48511" lon="5.31319">
        <ele>145</ele>
        <time>2013-03-10T09:57:05Z</time>
      </trkpt>
      <trkpt lat="43.48516" lon="5.31333">
        <ele>144</ele>
        <time>2013-03-10T09:57:14Z</time>
      </trkpt>
      <trkpt lat="43.4852" lon="5.31345">
        <ele>142</ele>
        <time>2013-03-10T09:57:23Z</time>
      </trkpt>
      <trkpt lat="43.48525" lon="5.31359">
        <ele>140</ele>
        <time>2013-03-10T09:57:33Z</time>
      </trkpt>
      <trkpt lat="43.48531" lon="5.31373">
        <ele>140</ele>
        <time>2013-03-10T09:57:42Z</time>
      </trkpt>
      <trkpt lat="43.48534" lon="5.31381">
        <ele>140</ele>
        <time>2013-03-10T09:57:54Z</time>
      </trkpt>
      <trkpt lat="43.48539" lon="5.31395">
        <ele>140</ele>
        <time>2013-03-10T09:58:04Z</time>
      </trkpt>
      <trkpt lat="43.48542" lon="5.31395">
        <ele>140</ele>
        <time>2013-03-10T09:58:13Z</time>
      </trkpt>
      <trkpt lat="43.48544" lon="5.31404">
        <ele>139</ele>
        <time>2013-03-10T09:58:23Z</time>
      </trkpt>
      <trkpt lat="43.48544" lon="5.31417">
        <ele>136</ele>
        <time>2013-03-10T09:58:32Z</time>
      </trkpt>
      <trkpt lat="43.48544" lon="5.3143">
        <ele>136</ele>
        <time>2013-03-10T09:58:41Z</time>
      </trkpt>
      <trkpt lat="43.48546" lon="5.31441">
        <ele>135</ele>
        <time>2013-03-10T09:58:50Z</time>
      </trkpt>
      <trkpt lat="43.48551" lon="5.31452">
        <ele>133</ele>
        <time>2013-03-10T09:59:00Z</time>
      </trkpt>
      <trkpt lat="43.48559" lon="5.31457">
        <ele>133</ele>
        <time>2013-03-10T09:59:10Z</time>
      </trkpt>
      <trkpt lat="43.48567" lon="5.31459">
        <ele>133</ele>
        <time>2013-03-10T09:59:21Z</time>
      </trkpt>
      <trkpt lat="43.48571" lon="5.31474">
        <ele>133</ele>
        <time>2013-03-10T09:59:30Z</time>
      </trkpt>
      <trkpt lat="43.48571" lon="5.3149">
        <ele>132</ele>
        <time>2013-03-10T09:59:40Z</time>
      </trkpt>
      <trkpt lat="43.48573" lon="5.31503">
        <ele>132</ele>
        <time>2013-03-10T09:59:50Z</time>
      </trkpt>
      <trkpt lat="43.48572" lon="5.31515">
        <ele>130</ele>
        <time>2013-03-10T09:59:59Z</time>
      </trkpt>
      <trkpt lat="43.48573" lon="5.31527">
        <ele>129</ele>
        <time>2013-03-10T10:00:08Z</time>
      </trkpt>
      <trkpt lat="43.48571" lon="5.31542">
        <ele>127</ele>
        <time>2013-03-10T10:00:18Z</time>
      </trkpt>
      <trkpt lat="43.48572" lon="5.3155">
        <ele>126</ele>
        <time>2013-03-10T10:00:27Z</time>
      </trkpt>
      <trkpt lat="43.4857" lon="5.31562">
        <ele>125</ele>
        <time>2013-03-10T10:00:38Z</time>
      </trkpt>
      <trkpt lat="43.48572" lon="5.31576">
        <ele>122</ele>
        <time>2013-03-10T10:00:47Z</time>
      </trkpt>
      <trkpt lat="43.48574" lon="5.31579">
        <ele>122</ele>
        <time>2013-03-10T10:01:01Z</time>
      </trkpt>
      <trkpt lat="43.48571" lon="5.31587">
        <ele>120</ele>
        <time>2013-03-10T10:01:11Z</time>
      </trkpt>
      <trkpt lat="43.48568" lon="5.31601">
        <ele>119</ele>
        <time>2013-03-10T10:01:21Z</time>
      </trkpt>
      <trkpt lat="43.48564" lon="5.3161">
        <ele>119</ele>
        <time>2013-03-10T10:01:31Z</time>
      </trkpt>
      <trkpt lat="43.48558" lon="5.31618">
        <ele>119</ele>
        <time>2013-03-10T10:01:41Z</time>
      </trkpt>
      <trkpt lat="43.48556" lon="5.3162">
        <ele>119</ele>
        <time>2013-03-10T10:01:51Z</time>
      </trkpt>
      <trkpt lat="43.48562" lon="5.3162">
        <ele>119</ele>
        <time>2013-03-10T10:02:01Z</time>
      </trkpt>
      <trkpt lat="43.48571" lon="5.31629">
        <ele>119</ele>
        <time>2013-03-10T10:02:11Z</time>
      </trkpt>
      <trkpt lat="43.4858" lon="5.31639">
        <ele>119</ele>
        <time>2013-03-10T10:02:21Z</time>
      </trkpt>
      <trkpt lat="43.48587" lon="5.31648">
        <ele>122</ele>
        <time>2013-03-10T10:02:31Z</time>
      </trkpt>
      <trkpt lat="43.48595" lon="5.31657">
        <ele>124</ele>
        <time>2013-03-10T10:02:41Z</time>
      </trkpt>
      <trkpt lat="43.48602" lon="5.31665">
        <ele>124</ele>
        <time>2013-03-10T10:02:50Z</time>
      </trkpt>
      <trkpt lat="43.48611" lon="5.31673">
        <ele>125</ele>
        <time>2013-03-10T10:03:00Z</time>
      </trkpt>
      <trkpt lat="43.4862" lon="5.31682">
        <ele>125</ele>
        <time>2013-03-10T10:03:10Z</time>
      </trkpt>
      <trkpt lat="43.48629" lon="5.31692">
        <ele>126</ele>
        <time>2013-03-10T10:03:20Z</time>
      </trkpt>
      <trkpt lat="43.48637" lon="5.31701">
        <ele>126</ele>
        <time>2013-03-10T10:03:30Z</time>
      </trkpt>
      <trkpt lat="43.48646" lon="5.3171">
        <ele>126</ele>
        <time>2013-03-10T10:03:39Z</time>
      </trkpt>
      <trkpt lat="43.48656" lon="5.31721">
        <ele>126</ele>
        <time>2013-03-10T10:03:49Z</time>
      </trkpt>
      <trkpt lat="43.48665" lon="5.31732">
        <ele>126</ele>
        <time>2013-03-10T10:03:59Z</time>
      </trkpt>
      <trkpt lat="43.48674" lon="5.31742">
        <ele>126</ele>
        <time>2013-03-10T10:04:09Z</time>
      </trkpt>
      <trkpt lat="43.48683" lon="5.31752">
        <ele>126</ele>
        <time>2013-03-10T10:04:19Z</time>
      </trkpt>
      <trkpt lat="43.48692" lon="5.31761">
        <ele>126</ele>
        <time>2013-03-10T10:04:28Z</time>
      </trkpt>
      <trkpt lat="43.48701" lon="5.31771">
        <ele>126</ele>
        <time>2013-03-10T10:04:38Z</time>
      </trkpt>
      <trkpt lat="43.48708" lon="5.31781">
        <ele>126</ele>
        <time>2013-03-10T10:04:48Z</time>
      </trkpt>
      <trkpt lat="43.4871" lon="5.31791">
        <ele>126</ele>
        <time>2013-03-10T10:05:01Z</time>
      </trkpt>
      <trkpt lat="43.48712" lon="5.31791">
        <ele>126</ele>
        <time>2013-03-10T10:05:12Z</time>
      </trkpt>
      <trkpt lat="43.48717" lon="5.3179">
        <ele>126</ele>
        <time>2013-03-10T10:05:22Z</time>
      </trkpt>
      <trkpt lat="43.48715" lon="5.31793">
        <ele>126</ele>
        <time>2013-03-10T10:05:38Z</time>
      </trkpt>
      <trkpt lat="43.48714" lon="5.31795">
        <ele>126</ele>
        <time>2013-03-10T10:05:59Z</time>
      </trkpt>
      <trkpt lat="43.48714" lon="5.31797">
        <ele>125</ele>
        <time>2013-03-10T10:06:11Z</time>
      </trkpt>
      <trkpt lat="43.48715" lon="5.31807">
        <ele>125</ele>
        <time>2013-03-10T10:06:21Z</time>
      </trkpt>
      <trkpt lat="43.48718" lon="5.3182">
        <ele>123</ele>
        <time>2013-03-10T10:06:31Z</time>
      </trkpt>
      <trkpt lat="43.48722" lon="5.31832">
        <ele>123</ele>
        <time>2013-03-10T10:06:40Z</time>
      </trkpt>
      <trkpt lat="43.48725" lon="5.31845">
        <ele>123</ele>
        <time>2013-03-10T10:06:49Z</time>
      </trkpt>
      <trkpt lat="43.4873" lon="5.31858">
        <ele>123</ele>
        <time>2013-03-10T10:06:58Z</time>
      </trkpt>
      <trkpt lat="43.48735" lon="5.3187">
        <ele>122</ele>
        <time>2013-03-10T10:07:07Z</time>
      </trkpt>
      <trkpt lat="43.48743" lon="5.3188">
        <ele>122</ele>
        <time>2013-03-10T10:07:16Z</time>
      </trkpt>
      <trkpt lat="43.48753" lon="5.31889">
        <ele>122</ele>
        <time>2013-03-10T10:07:25Z</time>
      </trkpt>
      <trkpt lat="43.48761" lon="5.31893">
        <ele>122</ele>
        <time>2013-03-10T10:07:35Z</time>
      </trkpt>
      <trkpt lat="43.4877" lon="5.31899">
        <ele>125</ele>
        <time>2013-03-10T10:07:45Z</time>
      </trkpt>
      <trkpt lat="43.48778" lon="5.31911">
        <ele>126</ele>
        <time>2013-03-10T10:07:54Z</time>
      </trkpt>
      <trkpt lat="43.48783" lon="5.31922">
        <ele>126</ele>
        <time>2013-03-10T10:08:03Z</time>
      </trkpt>
      <trkpt lat="43.48787" lon="5.31934">
        <ele>125</ele>
        <time>2013-03-10T10:08:13Z</time>
      </trkpt>
      <trkpt lat="43.48787" lon="5.31937">
        <ele>125</ele>
        <time>2013-03-10T10:08:22Z</time>
      </trkpt>
      <trkpt lat="43.48786" lon="5.31945">
        <ele>125</ele>
        <time>2013-03-10T10:08:32Z</time>
      </trkpt>
      <trkpt lat="43.48784" lon="5.31953">
        <ele>122</ele>
        <time>2013-03-10T10:08:42Z</time>
      </trkpt>
      <trkpt lat="43.48781" lon="5.31955">
        <ele>122</ele>
        <time>2013-03-10T10:08:52Z</time>
      </trkpt>
      <trkpt lat="43.4878" lon="5.31957">
        <ele>122</ele>
        <time>2013-03-10T10:09:05Z</time>
      </trkpt>
      <trkpt lat="43.48784" lon="5.31968">
        <ele>122</ele>
        <time>2013-03-10T10:09:15Z</time>
      </trkpt>
      <trkpt lat="43.48787" lon="5.31972">
        <ele>121</ele>
        <time>2013-03-10T10:09:24Z</time>
      </trkpt>
      <trkpt lat="43.48791" lon="5.31981">
        <ele>121</ele>
        <time>2013-03-10T10:09:33Z</time>
      </trkpt>
      <trkpt lat="43.48794" lon="5.31993">
        <ele>121</ele>
        <time>2013-03-10T10:09:42Z</time>
      </trkpt>
      <trkpt lat="43.48795" lon="5.32003">
        <ele>121</ele>
        <time>2013-03-10T10:09:51Z</time>
      </trkpt>
      <trkpt lat="43.488" lon="5.32015">
        <ele>121</ele>
        <time>2013-03-10T10:10:01Z</time>
      </trkpt>
      <trkpt lat="43.48804" lon="5.32028">
        <ele>124</ele>
        <time>2013-03-10T10:10:10Z</time>
      </trkpt>
      <trkpt lat="43.48806" lon="5.32042">
        <ele>127</ele>
        <time>2013-03-10T10:10:19Z</time>
      </trkpt>
      <trkpt lat="43.4881" lon="5.32055">
        <ele>127</ele>
        <time>2013-03-10T10:10:28Z</time>
      </trkpt>
      <trkpt lat="43.48811" lon="5.32069">
        <ele>127</ele>
        <time>2013-03-10T10:10:37Z</time>
      </trkpt>
      <trkpt lat="43.48811" lon="5.32083">
        <ele>127</ele>
        <time>2013-03-10T10:10:46Z</time>
      </trkpt>
      <trkpt lat="43.48809" lon="5.32098">
        <ele>127</ele>
        <time>2013-03-10T10:10:55Z</time>
      </trkpt>
      <trkpt lat="43.48806" lon="5.32111">
        <ele>127</ele>
        <time>2013-03-10T10:11:04Z</time>
      </trkpt>
      <trkpt lat="43.48807" lon="5.32122">
        <ele>127</ele>
        <time>2013-03-10T10:11:13Z</time>
      </trkpt>
      <trkpt lat="43.48817" lon="5.32119">
        <ele>128</ele>
        <time>2013-03-10T10:11:24Z</time>
      </trkpt>
      <trkpt lat="43.48829" lon="5.32115">
        <ele>128</ele>
        <time>2013-03-10T10:11:35Z</time>
      </trkpt>
      <trkpt lat="43.48841" lon="5.32118">
        <ele>128</ele>
        <time>2013-03-10T10:11:45Z</time>
      </trkpt>
      <trkpt lat="43.48851" lon="5.3212">
        <ele>128</ele>
        <time>2013-03-10T10:11:56Z</time>
      </trkpt>
      <trkpt lat="43.48861" lon="5.32123">
        <ele>128</ele>
        <time>2013-03-10T10:12:05Z</time>
      </trkpt>
      <trkpt lat="43.4887" lon="5.32129">
        <ele>128</ele>
        <time>2013-03-10T10:12:16Z</time>
      </trkpt>
      <trkpt lat="43.48878" lon="5.3214">
        <ele>128</ele>
        <time>2013-03-10T10:12:25Z</time>
      </trkpt>
      <trkpt lat="43.48883" lon="5.32155">
        <ele>128</ele>
        <time>2013-03-10T10:12:36Z</time>
      </trkpt>
      <trkpt lat="43.48885" lon="5.32168">
        <ele>128</ele>
        <time>2013-03-10T10:12:45Z</time>
      </trkpt>
      <trkpt lat="43.48892" lon="5.32182">
        <ele>128</ele>
        <time>2013-03-10T10:12:55Z</time>
      </trkpt>
      <trkpt lat="43.48903" lon="5.32191">
        <ele>129</ele>
        <time>2013-03-10T10:13:06Z</time>
      </trkpt>
      <trkpt lat="43.48913" lon="5.32198">
        <ele>129</ele>
        <time>2013-03-10T10:13:16Z</time>
      </trkpt>
      <trkpt lat="43.48925" lon="5.32207">
        <ele>130</ele>
        <time>2013-03-10T10:13:25Z</time>
      </trkpt>
      <trkpt lat="43.48933" lon="5.32218">
        <ele>130</ele>
        <time>2013-03-10T10:13:36Z</time>
      </trkpt>
      <trkpt lat="43.48941" lon="5.32231">
        <ele>130</ele>
        <time>2013-03-10T10:13:45Z</time>
      </trkpt>
      <trkpt lat="43.48948" lon="5.32243">
        <ele>130</ele>
        <time>2013-03-10T10:13:55Z</time>
      </trkpt>
      <trkpt lat="43.48955" lon="5.32255">
        <ele>130</ele>
        <time>2013-03-10T10:14:05Z</time>
      </trkpt>
      <trkpt lat="43.48962" lon="5.32265">
        <ele>130</ele>
        <time>2013-03-10T10:14:14Z</time>
      </trkpt>
      <trkpt lat="43.48964" lon="5.32279">
        <ele>130</ele>
        <time>2013-03-10T10:14:23Z</time>
      </trkpt>
      <trkpt lat="43.48962" lon="5.32294">
        <ele>130</ele>
        <time>2013-03-10T10:14:34Z</time>
      </trkpt>
      <trkpt lat="43.48958" lon="5.3231">
        <ele>130</ele>
        <time>2013-03-10T10:14:44Z</time>
      </trkpt>
      <trkpt lat="43.48951" lon="5.32325">
        <ele>130</ele>
        <time>2013-03-10T10:14:54Z</time>
      </trkpt>
      <trkpt lat="43.48943" lon="5.32337">
        <ele>131</ele>
        <time>2013-03-10T10:15:05Z</time>
      </trkpt>
      <trkpt lat="43.48936" lon="5.3235">
        <ele>131</ele>
        <time>2013-03-10T10:15:15Z</time>
      </trkpt>
      <trkpt lat="43.48936" lon="5.32365">
        <ele>131</ele>
        <time>2013-03-10T10:15:25Z</time>
      </trkpt>
      <trkpt lat="43.48941" lon="5.32376">
        <ele>131</ele>
        <time>2013-03-10T10:15:34Z</time>
      </trkpt>
      <trkpt lat="43.48946" lon="5.3239">
        <ele>131</ele>
        <time>2013-03-10T10:15:43Z</time>
      </trkpt>
      <trkpt lat="43.48946" lon="5.32404">
        <ele>131</ele>
        <time>2013-03-10T10:15:52Z</time>
      </trkpt>
      <trkpt lat="43.48944" lon="5.32417">
        <ele>131</ele>
        <time>2013-03-10T10:16:02Z</time>
      </trkpt>
      <trkpt lat="43.48939" lon="5.32431">
        <ele>131</ele>
        <time>2013-03-10T10:16:11Z</time>
      </trkpt>
      <trkpt lat="43.48933" lon="5.32443">
        <ele>131</ele>
        <time>2013-03-10T10:16:21Z</time>
      </trkpt>
      <trkpt lat="43.48926" lon="5.32458">
        <ele>131</ele>
        <time>2013-03-10T10:16:32Z</time>
      </trkpt>
      <trkpt lat="43.48921" lon="5.32472">
        <ele>131</ele>
        <time>2013-03-10T10:16:41Z</time>
      </trkpt>
      <trkpt lat="43.48916" lon="5.32484">
        <ele>131</ele>
        <time>2013-03-10T10:16:50Z</time>
      </trkpt>
      <trkpt lat="43.48911" lon="5.32497">
        <ele>131</ele>
        <time>2013-03-10T10:17:00Z</time>
      </trkpt>
      <trkpt lat="43.48906" lon="5.32509">
        <ele>131</ele>
        <time>2013-03-10T10:17:09Z</time>
      </trkpt>
      <trkpt lat="43.48897" lon="5.32519">
        <ele>131</ele>
        <time>2013-03-10T10:17:18Z</time>
      </trkpt>
      <trkpt lat="43.48889" lon="5.32528">
        <ele>131</ele>
        <time>2013-03-10T10:17:29Z</time>
      </trkpt>
      <trkpt lat="43.48886" lon="5.32543">
        <ele>131</ele>
        <time>2013-03-10T10:17:38Z</time>
      </trkpt>
      <trkpt lat="43.48875" lon="5.32549">
        <ele>130</ele>
        <time>2013-03-10T10:17:49Z</time>
      </trkpt>
      <trkpt lat="43.48867" lon="5.32558">
        <ele>127</ele>
        <time>2013-03-10T10:17:58Z</time>
      </trkpt>
      <trkpt lat="43.48861" lon="5.32571">
        <ele>126</ele>
        <time>2013-03-10T10:18:07Z</time>
      </trkpt>
      <trkpt lat="43.4886" lon="5.32579">
        <ele>127</ele>
        <time>2013-03-10T10:18:19Z</time>
      </trkpt>
      <trkpt lat="43.48864" lon="5.32582">
        <ele>128</ele>
        <time>2013-03-10T10:18:31Z</time>
      </trkpt>
      <trkpt lat="43.48866" lon="5.32583">
        <ele>130</ele>
        <time>2013-03-10T10:18:44Z</time>
      </trkpt>
      <trkpt lat="43.48862" lon="5.32592">
        <ele>130</ele>
        <time>2013-03-10T10:18:54Z</time>
      </trkpt>
      <trkpt lat="43.48854" lon="5.32606">
        <ele>130</ele>
        <time>2013-03-10T10:19:03Z</time>
      </trkpt>
      <trkpt lat="43.48853" lon="5.32624">
        <ele>130</ele>
        <time>2013-03-10T10:19:13Z</time>
      </trkpt>
      <trkpt lat="43.48859" lon="5.32636">
        <ele>129</ele>
        <time>2013-03-10T10:19:23Z</time>
      </trkpt>
      <trkpt lat="43.48866" lon="5.32647">
        <ele>128</ele>
        <time>2013-03-10T10:19:32Z</time>
      </trkpt>
      <trkpt lat="43.48871" lon="5.32659">
        <ele>128</ele>
        <time>2013-03-10T10:19:41Z</time>
      </trkpt>
      <trkpt lat="43.48876" lon="5.32669">
        <ele>128</ele>
        <time>2013-03-10T10:19:51Z</time>
      </trkpt>
      <trkpt lat="43.48881" lon="5.32676">
        <ele>128</ele>
        <time>2013-03-10T10:20:00Z</time>
      </trkpt>
      <trkpt lat="43.48883" lon="5.3268">
        <ele>128</ele>
        <time>2013-03-10T10:20:09Z</time>
      </trkpt>
      <trkpt lat="43.48884" lon="5.3268">
        <ele>128</ele>
        <time>2013-03-10T10:20:18Z</time>
      </trkpt>
      <trkpt lat="43.48884" lon="5.32678">
        <ele>128</ele>
        <time>2013-03-10T10:20:36Z</time>
      </trkpt>
      <trkpt lat="43.48883" lon="5.32677">
        <ele>128</ele>
        <time>2013-03-10T10:20:52Z</time>
      </trkpt>
      <trkpt lat="43.48882" lon="5.32677">
        <ele>128</ele>
        <time>2013-03-10T10:21:06Z</time>
      </trkpt>
      <trkpt lat="43.48877" lon="5.3267">
        <ele>128</ele>
        <time>2013-03-10T10:21:15Z</time>
      </trkpt>
      <trkpt lat="43.48877" lon="5.32672">
        <ele>128</ele>
        <time>2013-03-10T10:22:02Z</time>
      </trkpt>
      <trkpt lat="43.48877" lon="5.32672">
        <ele>127</ele>
        <time>2013-03-10T10:22:19Z</time>
      </trkpt>
      <trkpt lat="43.48877" lon="5.32671">
        <ele>126</ele>
        <time>2013-03-10T10:22:30Z</time>
      </trkpt>
      <trkpt lat="43.4888" lon="5.32668">
        <ele>126</ele>
        <time>2013-03-10T10:22:45Z</time>
      </trkpt>
      <trkpt lat="43.48883" lon="5.32668">
        <ele>125</ele>
        <time>2013-03-10T10:22:59Z</time>
      </trkpt>
      <trkpt lat="43.48886" lon="5.32669">
        <ele>125</ele>
        <time>2013-03-10T10:23:10Z</time>
      </trkpt>
      <trkpt lat="43.48892" lon="5.32676">
        <ele>125</ele>
        <time>2013-03-10T10:23:19Z</time>
      </trkpt>
      <trkpt lat="43.48897" lon="5.32684">
        <ele>125</ele>
        <time>2013-03-10T10:23:28Z</time>
      </trkpt>
      <trkpt lat="43.48902" lon="5.32694">
        <ele>125</ele>
        <time>2013-03-10T10:23:37Z</time>
      </trkpt>
      <trkpt lat="43.48904" lon="5.32708">
        <ele>125</ele>
        <time>2013-03-10T10:23:46Z</time>
      </trkpt>
      <trkpt lat="43.48901" lon="5.32722">
        <ele>128</ele>
        <time>2013-03-10T10:23:55Z</time>
      </trkpt>
      <trkpt lat="43.48896" lon="5.32734">
        <ele>128</ele>
        <time>2013-03-10T10:24:05Z</time>
      </trkpt>
      <trkpt lat="43.4889" lon="5.32747">
        <ele>128</ele>
        <time>2013-03-10T10:24:15Z</time>
      </trkpt>
      <trkpt lat="43.48885" lon="5.32755">
        <ele>128</ele>
        <time>2013-03-10T10:24:24Z</time>
      </trkpt>
      <trkpt lat="43.48878" lon="5.32767">
        <ele>128</ele>
        <time>2013-03-10T10:24:34Z</time>
      </trkpt>
      <trkpt lat="43.48871" lon="5.32781">
        <ele>128</ele>
        <time>2013-03-10T10:24:43Z</time>
      </trkpt>
      <trkpt lat="43.48863" lon="5.32794">
        <ele>128</ele>
        <time>2013-03-10T10:24:53Z</time>
      </trkpt>
      <trkpt lat="43.48856" lon="5.32805">
        <ele>128</ele>
        <time>2013-03-10T10:25:02Z</time>
      </trkpt>
      <trkpt lat="43.4885" lon="5.32817">
        <ele>127</ele>
        <time>2013-03-10T10:25:12Z</time>
      </trkpt>
      <trkpt lat="43.48843" lon="5.32829">
        <ele>125</ele>
        <time>2013-03-10T10:25:22Z</time>
      </trkpt>
      <trkpt lat="43.48836" lon="5.32841">
        <ele>125</ele>
        <time>2013-03-10T10:25:31Z</time>
      </trkpt>
      <trkpt lat="43.48828" lon="5.32854">
        <ele>124</ele>
        <time>2013-03-10T10:25:41Z</time>
      </trkpt>
      <trkpt lat="43.4882" lon="5.32866">
        <ele>124</ele>
        <time>2013-03-10T10:25:51Z</time>
      </trkpt>
      <trkpt lat="43.48813" lon="5.32879">
        <ele>124</ele>
        <time>2013-03-10T10:26:00Z</time>
      </trkpt>
      <trkpt lat="43.48805" lon="5.32891">
        <ele>124</ele>
        <time>2013-03-10T10:26:10Z</time>
      </trkpt>
      <trkpt lat="43.48798" lon="5.32903">
        <ele>124</ele>
        <time>2013-03-10T10:26:19Z</time>
      </trkpt>
      <trkpt lat="43.48792" lon="5.32918">
        <ele>124</ele>
        <time>2013-03-10T10:26:28Z</time>
      </trkpt>
      <trkpt lat="43.48785" lon="5.32932">
        <ele>127</ele>
        <time>2013-03-10T10:26:37Z</time>
      </trkpt>
      <trkpt lat="43.48781" lon="5.32945">
        <ele>132</ele>
        <time>2013-03-10T10:26:46Z</time>
      </trkpt>
      <trkpt lat="43.48778" lon="5.32957">
        <ele>132</ele>
        <time>2013-03-10T10:26:55Z</time>
      </trkpt>
      <trkpt lat="43.48777" lon="5.32971">
        <ele>135</ele>
        <time>2013-03-10T10:27:04Z</time>
      </trkpt>
      <trkpt lat="43.48775" lon="5.32982">
        <ele>139</ele>
        <time>2013-03-10T10:27:14Z</time>
      </trkpt>
      <trkpt lat="43.48776" lon="5.32996">
        <ele>145</ele>
        <time>2013-03-10T10:27:23Z</time>
      </trkpt>
      <trkpt lat="43.48778" lon="5.33012">
        <ele>148</ele>
        <time>2013-03-10T10:27:32Z</time>
      </trkpt>
      <trkpt lat="43.48779" lon="5.33026">
        <ele>148</ele>
        <time>2013-03-10T10:27:41Z</time>
      </trkpt>
      <trkpt lat="43.48781" lon="5.33038">
        <ele>148</ele>
        <time>2013-03-10T10:27:51Z</time>
      </trkpt>
      <trkpt lat="43.48785" lon="5.33049">
        <ele>148</ele>
        <time>2013-03-10T10:28:00Z</time>
      </trkpt>
      <trkpt lat="43.48791" lon="5.33061">
        <ele>149</ele>
        <time>2013-03-10T10:28:10Z</time>
      </trkpt>
      <trkpt lat="43.48794" lon="5.33076">
        <ele>149</ele>
        <time>2013-03-10T10:28:20Z</time>
      </trkpt>
      <trkpt lat="43.48797" lon="5.3309">
        <ele>152</ele>
        <time>2013-03-10T10:28:29Z</time>
      </trkpt>
      <trkpt lat="43.48798" lon="5.33105">
        <ele>153</ele>
        <time>2013-03-10T10:28:39Z</time>
      </trkpt>
      <trkpt lat="43.48799" lon="5.33117">
        <ele>153</ele>
        <time>2013-03-10T10:28:49Z</time>
      </trkpt>
      <trkpt lat="43.48801" lon="5.33126">
        <ele>155</ele>
        <time>2013-03-10T10:28:58Z</time>
      </trkpt>
      <trkpt lat="43.48809" lon="5.33136">
        <ele>157</ele>
        <time>2013-03-10T10:29:08Z</time>
      </trkpt>
      <trkpt lat="43.48815" lon="5.33144">
        <ele>159</ele>
        <time>2013-03-10T10:29:18Z</time>
      </trkpt>
      <trkpt lat="43.4882" lon="5.33146">
        <ele>163</ele>
        <time>2013-03-10T10:29:28Z</time>
      </trkpt>
      <trkpt lat="43.48829" lon="5.33146">
        <ele>164</ele>
        <time>2013-03-10T10:29:38Z</time>
      </trkpt>
      <trkpt lat="43.48838" lon="5.33144">
        <ele>164</ele>
        <time>2013-03-10T10:29:48Z</time>
      </trkpt>
      <trkpt lat="43.48845" lon="5.33138">
        <ele>164</ele>
        <time>2013-03-10T10:29:57Z</time>
      </trkpt>
      <trkpt lat="43.48852" lon="5.33131">
        <ele>164</ele>
        <time>2013-03-10T10:30:06Z</time>
      </trkpt>
      <trkpt lat="43.48858" lon="5.33121">
        <ele>164</ele>
        <time>2013-03-10T10:30:15Z</time>
      </trkpt>
      <trkpt lat="43.48866" lon="5.33113">
        <ele>166</ele>
        <time>2013-03-10T10:30:25Z</time>
      </trkpt>
      <trkpt lat="43.48876" lon="5.33108">
        <ele>166</ele>
        <time>2013-03-10T10:30:34Z</time>
      </trkpt>
      <trkpt lat="43.48884" lon="5.33101">
        <ele>166</ele>
        <time>2013-03-10T10:30:43Z</time>
      </trkpt>
      <trkpt lat="43.48893" lon="5.33094">
        <ele>166</ele>
        <time>2013-03-10T10:30:53Z</time>
      </trkpt>
      <trkpt lat="43.48904" lon="5.33088">
        <ele>166</ele>
        <time>2013-03-10T10:31:02Z</time>
      </trkpt>
      <trkpt lat="43.48915" lon="5.33083">
        <ele>166</ele>
        <time>2013-03-10T10:31:11Z</time>
      </trkpt>
      <trkpt lat="43.48927" lon="5.33079">
        <ele>166</ele>
        <time>2013-03-10T10:31:20Z</time>
      </trkpt>
      <trkpt lat="43.48939" lon="5.33076">
        <ele>165</ele>
        <time>2013-03-10T10:31:30Z</time>
      </trkpt>
      <trkpt lat="43.48948" lon="5.33075">
        <ele>165</ele>
        <time>2013-03-10T10:31:41Z</time>
      </trkpt>
      <trkpt lat="43.48959" lon="5.33077">
        <ele>165</ele>
        <time>2013-03-10T10:31:50Z</time>
      </trkpt>
      <trkpt lat="43.4897" lon="5.33081">
        <ele>165</ele>
        <time>2013-03-10T10:31:59Z</time>
      </trkpt>
      <trkpt lat="43.48981" lon="5.33083">
        <ele>165</ele>
        <time>2013-03-10T10:32:08Z</time>
      </trkpt>
      <trkpt lat="43.48992" lon="5.33081">
        <ele>165</ele>
        <time>2013-03-10T10:32:17Z</time>
      </trkpt>
      <trkpt lat="43.49003" lon="5.33084">
        <ele>165</ele>
        <time>2013-03-10T10:32:27Z</time>
      </trkpt>
      <trkpt lat="43.49013" lon="5.33089">
        <ele>165</ele>
        <time>2013-03-10T10:32:36Z</time>
      </trkpt>
      <trkpt lat="43.49023" lon="5.33091">
        <ele>165</ele>
        <time>2013-03-10T10:32:45Z</time>
      </trkpt>
      <trkpt lat="43.49035" lon="5.33093">
        <ele>165</ele>
        <time>2013-03-10T10:32:54Z</time>
      </trkpt>
      <trkpt lat="43.49048" lon="5.33097">
        <ele>165</ele>
        <time>2013-03-10T10:33:04Z</time>
      </trkpt>
      <trkpt lat="43.49059" lon="5.33101">
        <ele>166</ele>
        <time>2013-03-10T10:33:13Z</time>
      </trkpt>
      <trkpt lat="43.49073" lon="5.33109">
        <ele>167</ele>
        <time>2013-03-10T10:33:23Z</time>
      </trkpt>
      <trkpt lat="43.49078" lon="5.33122">
        <ele>169</ele>
        <time>2013-03-10T10:33:32Z</time>
      </trkpt>
      <trkpt lat="43.49081" lon="5.33137">
        <ele>173</ele>
        <time>2013-03-10T10:33:41Z</time>
      </trkpt>
      <trkpt lat="43.4908" lon="5.3315">
        <ele>173</ele>
        <time>2013-03-10T10:33:50Z</time>
      </trkpt>
      <trkpt lat="43.49083" lon="5.33164">
        <ele>173</ele>
        <time>2013-03-10T10:33:59Z</time>
      </trkpt>
      <trkpt lat="43.49086" lon="5.33179">
        <ele>173</ele>
        <time>2013-03-10T10:34:08Z</time>
      </trkpt>
      <trkpt lat="43.49088" lon="5.33192">
        <ele>173</ele>
        <time>2013-03-10T10:34:17Z</time>
      </trkpt>
      <trkpt lat="43.49086" lon="5.33207">
        <ele>173</ele>
        <time>2013-03-10T10:34:26Z</time>
      </trkpt>
      <trkpt lat="43.4909" lon="5.33219">
        <ele>173</ele>
        <time>2013-03-10T10:34:35Z</time>
      </trkpt>
      <trkpt lat="43.49098" lon="5.33227">
        <ele>173</ele>
        <time>2013-03-10T10:34:45Z</time>
      </trkpt>
      <trkpt lat="43.49111" lon="5.33223">
        <ele>172</ele>
        <time>2013-03-10T10:34:56Z</time>
      </trkpt>
      <trkpt lat="43.49121" lon="5.33217">
        <ele>168</ele>
        <time>2013-03-10T10:35:06Z</time>
      </trkpt>
      <trkpt lat="43.49131" lon="5.33211">
        <ele>167</ele>
        <time>2013-03-10T10:35:16Z</time>
      </trkpt>
      <trkpt lat="43.49142" lon="5.33203">
        <ele>166</ele>
        <time>2013-03-10T10:35:25Z</time>
      </trkpt>
      <trkpt lat="43.49151" lon="5.33192">
        <ele>166</ele>
        <time>2013-03-10T10:35:36Z</time>
      </trkpt>
      <trkpt lat="43.49157" lon="5.33177">
        <ele>166</ele>
        <time>2013-03-10T10:35:46Z</time>
      </trkpt>
      <trkpt lat="43.49163" lon="5.33172">
        <ele>166</ele>
        <time>2013-03-10T10:35:55Z</time>
      </trkpt>
      <trkpt lat="43.49167" lon="5.33165">
        <ele>166</ele>
        <time>2013-03-10T10:36:05Z</time>
      </trkpt>
      <trkpt lat="43.49174" lon="5.33157">
        <ele>166</ele>
        <time>2013-03-10T10:36:15Z</time>
      </trkpt>
      <trkpt lat="43.49183" lon="5.33149">
        <ele>166</ele>
        <time>2013-03-10T10:36:25Z</time>
      </trkpt>
      <trkpt lat="43.4919" lon="5.33154">
        <ele>166</ele>
        <time>2013-03-10T10:36:35Z</time>
      </trkpt>
      <trkpt lat="43.49194" lon="5.33167">
        <ele>165</ele>
        <time>2013-03-10T10:36:44Z</time>
      </trkpt>
      <trkpt lat="43.492" lon="5.33179">
        <ele>165</ele>
        <time>2013-03-10T10:36:55Z</time>
      </trkpt>
      <trkpt lat="43.49204" lon="5.33194">
        <ele>165</ele>
        <time>2013-03-10T10:37:04Z</time>
      </trkpt>
      <trkpt lat="43.4921" lon="5.33205">
        <ele>165</ele>
        <time>2013-03-10T10:37:13Z</time>
      </trkpt>
      <trkpt lat="43.49215" lon="5.33219">
        <ele>165</ele>
        <time>2013-03-10T10:37:24Z</time>
      </trkpt>
      <trkpt lat="43.49223" lon="5.33228">
        <ele>165</ele>
        <time>2013-03-10T10:37:35Z</time>
      </trkpt>
      <trkpt lat="43.49232" lon="5.33222">
        <ele>165</ele>
        <time>2013-03-10T10:37:45Z</time>
      </trkpt>
      <trkpt lat="43.49239" lon="5.33213">
        <ele>165</ele>
        <time>2013-03-10T10:37:55Z</time>
      </trkpt>
      <trkpt lat="43.49246" lon="5.33201">
        <ele>165</ele>
        <time>2013-03-10T10:38:05Z</time>
      </trkpt>
      <trkpt lat="43.49247" lon="5.33194">
        <ele>165</ele>
        <time>2013-03-10T10:38:17Z</time>
      </trkpt>
      <trkpt lat="43.49238" lon="5.3319">
        <ele>165</ele>
        <time>2013-03-10T10:38:27Z</time>
      </trkpt>
      <trkpt lat="43.49232" lon="5.33186">
        <ele>165</ele>
        <time>2013-03-10T10:38:38Z</time>
      </trkpt>
      <trkpt lat="43.49231" lon="5.33188">
        <ele>169</ele>
        <time>2013-03-10T10:38:49Z</time>
      </trkpt>
      <trkpt lat="43.49233" lon="5.3319">
        <ele>169</ele>
        <time>2013-03-10T10:38:59Z</time>
      </trkpt>
      <trkpt lat="43.49239" lon="5.33203">
        <ele>168</ele>
        <time>2013-03-10T10:39:09Z</time>
      </trkpt>
      <trkpt lat="43.49252" lon="5.33197">
        <ele>162</ele>
        <time>2013-03-10T10:39:18Z</time>
      </trkpt>
      <trkpt lat="43.49262" lon="5.3319">
        <ele>158</ele>
        <time>2013-03-10T10:39:27Z</time>
      </trkpt>
      <trkpt lat="43.49272" lon="5.33185">
        <ele>158</ele>
        <time>2013-03-10T10:39:38Z</time>
      </trkpt>
      <trkpt lat="43.49281" lon="5.33187">
        <ele>158</ele>
        <time>2013-03-10T10:39:47Z</time>
      </trkpt>
      <trkpt lat="43.49291" lon="5.33202">
        <ele>158</ele>
        <time>2013-03-10T10:39:57Z</time>
      </trkpt>
      <trkpt lat="43.49296" lon="5.33216">
        <ele>158</ele>
        <time>2013-03-10T10:40:06Z</time>
      </trkpt>
      <trkpt lat="43.49302" lon="5.33224">
        <ele>158</ele>
        <time>2013-03-10T10:40:15Z</time>
      </trkpt>
      <trkpt lat="43.49313" lon="5.33227">
        <ele>158</ele>
        <time>2013-03-10T10:40:24Z</time>
      </trkpt>
      <trkpt lat="43.49324" lon="5.33223">
        <ele>157</ele>
        <time>2013-03-10T10:40:34Z</time>
      </trkpt>
      <trkpt lat="43.49336" lon="5.33219">
        <ele>155</ele>
        <time>2013-03-10T10:40:44Z</time>
      </trkpt>
      <trkpt lat="43.49346" lon="5.33218">
        <ele>155</ele>
        <time>2013-03-10T10:40:53Z</time>
      </trkpt>
      <trkpt lat="43.49358" lon="5.33219">
        <ele>155</ele>
        <time>2013-03-10T10:41:03Z</time>
      </trkpt>
      <trkpt lat="43.49366" lon="5.33217">
        <ele>155</ele>
        <time>2013-03-10T10:41:12Z</time>
      </trkpt>
      <trkpt lat="43.49376" lon="5.33214">
        <ele>155</ele>
        <time>2013-03-10T10:41:22Z</time>
      </trkpt>
      <trkpt lat="43.49385" lon="5.33209">
        <ele>154</ele>
        <time>2013-03-10T10:41:31Z</time>
      </trkpt>
      <trkpt lat="43.49395" lon="5.33202">
        <ele>154</ele>
        <time>2013-03-10T10:41:41Z</time>
      </trkpt>
      <trkpt lat="43.49406" lon="5.332">
        <ele>154</ele>
        <time>2013-03-10T10:41:50Z</time>
      </trkpt>
      <trkpt lat="43.49419" lon="5.33199">
        <ele>154</ele>
        <time>2013-03-10T10:42:00Z</time>
      </trkpt>
      <trkpt lat="43.49428" lon="5.33195">
        <ele>154</ele>
        <time>2013-03-10T10:42:09Z</time>
      </trkpt>
      <trkpt lat="43.49438" lon="5.33195">
        <ele>156</ele>
        <time>2013-03-10T10:42:19Z</time>
      </trkpt>
      <trkpt lat="43.4945" lon="5.33195">
        <ele>158</ele>
        <time>2013-03-10T10:42:28Z</time>
      </trkpt>
      <trkpt lat="43.49459" lon="5.33193">
        <ele>157</ele>
        <time>2013-03-10T10:42:37Z</time>
      </trkpt>
      <trkpt lat="43.49469" lon="5.3319">
        <ele>156</ele>
        <time>2013-03-10T10:42:46Z</time>
      </trkpt>
      <trkpt lat="43.4948" lon="5.33184">
        <ele>154</ele>
        <time>2013-03-10T10:42:56Z</time>
      </trkpt>
      <trkpt lat="43.49491" lon="5.33186">
        <ele>154</ele>
        <time>2013-03-10T10:43:05Z</time>
      </trkpt>
      <trkpt lat="43.49504" lon="5.3319">
        <ele>153</ele>
        <time>2013-03-10T10:43:14Z</time>
      </trkpt>
      <trkpt lat="43.49517" lon="5.33188">
        <ele>152</ele>
        <time>2013-03-10T10:43:24Z</time>
      </trkpt>
      <trkpt lat="43.49531" lon="5.3319">
        <ele>152</ele>
        <time>2013-03-10T10:43:34Z</time>
      </trkpt>
      <trkpt lat="43.4954" lon="5.33189">
        <ele>152</ele>
        <time>2013-03-10T10:43:44Z</time>
      </trkpt>
      <trkpt lat="43.4955" lon="5.33188">
        <ele>150</ele>
        <time>2013-03-10T10:43:53Z</time>
      </trkpt>
      <trkpt lat="43.49562" lon="5.33188">
        <ele>150</ele>
        <time>2013-03-10T10:44:02Z</time>
      </trkpt>
      <trkpt lat="43.49574" lon="5.33185">
        <ele>150</ele>
        <time>2013-03-10T10:44:13Z</time>
      </trkpt>
      <trkpt lat="43.49586" lon="5.33182">
        <ele>147</ele>
        <time>2013-03-10T10:44:23Z</time>
      </trkpt>
      <trkpt lat="43.49594" lon="5.33172">
        <ele>146</ele>
        <time>2013-03-10T10:44:32Z</time>
      </trkpt>
      <trkpt lat="43.49602" lon="5.33164">
        <ele>146</ele>
        <time>2013-03-10T10:44:41Z</time>
      </trkpt>
      <trkpt lat="43.49614" lon="5.33159">
        <ele>146</ele>
        <time>2013-03-10T10:44:50Z</time>
      </trkpt>
      <trkpt lat="43.49623" lon="5.33153">
        <ele>145</ele>
        <time>2013-03-10T10:44:59Z</time>
      </trkpt>
      <trkpt lat="43.49633" lon="5.3315">
        <ele>144</ele>
        <time>2013-03-10T10:45:08Z</time>
      </trkpt>
      <trkpt lat="43.49641" lon="5.33141">
        <ele>143</ele>
        <time>2013-03-10T10:45:17Z</time>
      </trkpt>
      <trkpt lat="43.49649" lon="5.33131">
        <ele>143</ele>
        <time>2013-03-10T10:45:26Z</time>
      </trkpt>
      <trkpt lat="43.49659" lon="5.3312">
        <ele>141</ele>
        <time>2013-03-10T10:45:36Z</time>
      </trkpt>
      <trkpt lat="43.49667" lon="5.33115">
        <ele>141</ele>
        <time>2013-03-10T10:45:45Z</time>
      </trkpt>
      <trkpt lat="43.49677" lon="5.33113">
        <ele>140</ele>
        <time>2013-03-10T10:45:54Z</time>
      </trkpt>
      <trkpt lat="43.49689" lon="5.33105">
        <ele>140</ele>
        <time>2013-03-10T10:46:05Z</time>
      </trkpt>
      <trkpt lat="43.49698" lon="5.33096">
        <ele>139</ele>
        <time>2013-03-10T10:46:14Z</time>
      </trkpt>
      <trkpt lat="43.49706" lon="5.33085">
        <ele>136</ele>
        <time>2013-03-10T10:46:23Z</time>
      </trkpt>
      <trkpt lat="43.49717" lon="5.33077">
        <ele>136</ele>
        <time>2013-03-10T10:46:33Z</time>
      </trkpt>
      <trkpt lat="43.49725" lon="5.33071">
        <ele>135</ele>
        <time>2013-03-10T10:46:42Z</time>
      </trkpt>
      <trkpt lat="43.49737" lon="5.33066">
        <ele>134</ele>
        <time>2013-03-10T10:46:52Z</time>
      </trkpt>
      <trkpt lat="43.49749" lon="5.33065">
        <ele>134</ele>
        <time>2013-03-10T10:47:01Z</time>
      </trkpt>
      <trkpt lat="43.49759" lon="5.33063">
        <ele>134</ele>
        <time>2013-03-10T10:47:11Z</time>
      </trkpt>
      <trkpt lat="43.49767" lon="5.33063">
        <ele>133</ele>
        <time>2013-03-10T10:47:20Z</time>
      </trkpt>
      <trkpt lat="43.49771" lon="5.33065">
        <ele>133</ele>
        <time>2013-03-10T10:47:31Z</time>
      </trkpt>
      <trkpt lat="43.49771" lon="5.33068">
        <ele>133</ele>
        <time>2013-03-10T10:47:48Z</time>
      </trkpt>
      <trkpt lat="43.49772" lon="5.33069">
        <ele>133</ele>
        <time>2013-03-10T10:47:58Z</time>
      </trkpt>
      <trkpt lat="43.49778" lon="5.33072">
        <ele>133</ele>
        <time>2013-03-10T10:48:07Z</time>
      </trkpt>
      <trkpt lat="43.4978" lon="5.33075">
        <ele>133</ele>
        <time>2013-03-10T10:48:18Z</time>
      </trkpt>
      <trkpt lat="43.4978" lon="5.33082">
        <ele>134</ele>
        <time>2013-03-10T10:48:30Z</time>
      </trkpt>
      <trkpt lat="43.49779" lon="5.33083">
        <ele>134</ele>
        <time>2013-03-10T10:48:44Z</time>
      </trkpt>
      <trkpt lat="43.4978" lon="5.33085">
        <ele>134</ele>
        <time>2013-03-10T10:48:55Z</time>
      </trkpt>
      <trkpt lat="43.49779" lon="5.33087">
        <ele>132</ele>
        <time>2013-03-10T10:49:06Z</time>
      </trkpt>
      <trkpt lat="43.4978" lon="5.33083">
        <ele>131</ele>
        <time>2013-03-10T10:49:19Z</time>
      </trkpt>
      <trkpt lat="43.49777" lon="5.33084">
        <ele>131</ele>
        <time>2013-03-10T10:49:30Z</time>
      </trkpt>
      <trkpt lat="43.49776" lon="5.33082">
        <ele>131</ele>
        <time>2013-03-10T10:49:40Z</time>
      </trkpt>
      <trkpt lat="43.49776" lon="5.33089">
        <ele>131</ele>
        <time>2013-03-10T10:49:53Z</time>
      </trkpt>
      <trkpt lat="43.49775" lon="5.33098">
        <ele>131</ele>
        <time>2013-03-10T10:50:03Z</time>
      </trkpt>
      <trkpt lat="43.49771" lon="5.3311">
        <ele>131</ele>
        <time>2013-03-10T10:50:12Z</time>
      </trkpt>
      <trkpt lat="43.49769" lon="5.33115">
        <ele>131</ele>
        <time>2013-03-10T10:50:25Z</time>
      </trkpt>
      <trkpt lat="43.4977" lon="5.33115">
        <ele>131</ele>
        <time>2013-03-10T10:50:46Z</time>
      </trkpt>
      <trkpt lat="43.49772" lon="5.33125">
        <ele>132</ele>
        <time>2013-03-10T10:50:56Z</time>
      </trkpt>
      <trkpt lat="43.4978" lon="5.33135">
        <ele>132</ele>
        <time>2013-03-10T10:51:06Z</time>
      </trkpt>
      <trkpt lat="43.49788" lon="5.33142">
        <ele>132</ele>
        <time>2013-03-10T10:51:16Z</time>
      </trkpt>
      <trkpt lat="43.49799" lon="5.33149">
        <ele>133</ele>
        <time>2013-03-10T10:51:25Z</time>
      </trkpt>
      <trkpt lat="43.49807" lon="5.33154">
        <ele>135</ele>
        <time>2013-03-10T10:51:34Z</time>
      </trkpt>
      <trkpt lat="43.49814" lon="5.33161">
        <ele>136</ele>
        <time>2013-03-10T10:51:43Z</time>
      </trkpt>
      <trkpt lat="43.49821" lon="5.3317">
        <ele>136</ele>
        <time>2013-03-10T10:51:52Z</time>
      </trkpt>
      <trkpt lat="43.49828" lon="5.33177">
        <ele>136</ele>
        <time>2013-03-10T10:52:01Z</time>
      </trkpt>
      <trkpt lat="43.49837" lon="5.33188">
        <ele>136</ele>
        <time>2013-03-10T10:52:11Z</time>
      </trkpt>
      <trkpt lat="43.49846" lon="5.33196">
        <ele>136</ele>
        <time>2013-03-10T10:52:20Z</time>
      </trkpt>
      <trkpt lat="43.49855" lon="5.33203">
        <ele>136</ele>
        <time>2013-03-10T10:52:29Z</time>
      </trkpt>
      <trkpt lat="43.49866" lon="5.33204">
        <ele>136</ele>
        <time>2013-03-10T10:52:38Z</time>
      </trkpt>
      <trkpt lat="43.49876" lon="5.33208">
        <ele>136</ele>
        <time>2013-03-10T10:52:47Z</time>
      </trkpt>
      <trkpt lat="43.49883" lon="5.33214">
        <ele>136</ele>
        <time>2013-03-10T10:52:56Z</time>
      </trkpt>
      <trkpt lat="43.49894" lon="5.33223">
        <ele>136</ele>
        <time>2013-03-10T10:53:06Z</time>
      </trkpt>
      <trkpt lat="43.49903" lon="5.33225">
        <ele>136</ele>
        <time>2013-03-10T10:53:16Z</time>
      </trkpt>
      <trkpt lat="43.49911" lon="5.33225">
        <ele>136</ele>
        <time>2013-03-10T10:53:25Z</time>
      </trkpt>
      <trkpt lat="43.49922" lon="5.33227">
        <ele>136</ele>
        <time>2013-03-10T10:53:35Z</time>
      </trkpt>
      <trkpt lat="43.49931" lon="5.33231">
        <ele>136</ele>
        <time>2013-03-10T10:53:44Z</time>
      </trkpt>
      <trkpt lat="43.4994" lon="5.33231">
        <ele>136</ele>
        <time>2013-03-10T10:53:53Z</time>
      </trkpt>
      <trkpt lat="43.4995" lon="5.33233">
        <ele>136</ele>
        <time>2013-03-10T10:54:02Z</time>
      </trkpt>
      <trkpt lat="43.49958" lon="5.3324">
        <ele>136</ele>
        <time>2013-03-10T10:54:11Z</time>
      </trkpt>
      <trkpt lat="43.49966" lon="5.33245">
        <ele>136</ele>
        <time>2013-03-10T10:54:20Z</time>
      </trkpt>
      <trkpt lat="43.49976" lon="5.33247">
        <ele>136</ele>
        <time>2013-03-10T10:54:29Z</time>
      </trkpt>
      <trkpt lat="43.49983" lon="5.33255">
        <ele>136</ele>
        <time>2013-03-10T10:54:39Z</time>
      </trkpt>
      <trkpt lat="43.49989" lon="5.33259">
        <ele>136</ele>
        <time>2013-03-10T10:55:06Z</time>
      </trkpt>
      <trkpt lat="43.49991" lon="5.33261">
        <ele>136</ele>
        <time>2013-03-10T10:55:29Z</time>
      </trkpt>
      <trkpt lat="43.49991" lon="5.33264">
        <ele>136</ele>
        <time>2013-03-10T10:55:43Z</time>
      </trkpt>
      <trkpt lat="43.49997" lon="5.33274">
        <ele>136</ele>
        <time>2013-03-10T10:55:53Z</time>
      </trkpt>
      <trkpt lat="43.5" lon="5.33284">
        <ele>136</ele>
        <time>2013-03-10T10:56:03Z</time>
      </trkpt>
      <trkpt lat="43.50004" lon="5.33296">
        <ele>136</ele>
        <time>2013-03-10T10:56:12Z</time>
      </trkpt>
      <trkpt lat="43.5001" lon="5.33306">
        <ele>135</ele>
        <time>2013-03-10T10:56:22Z</time>
      </trkpt>
      <trkpt lat="43.50014" lon="5.33316">
        <ele>133</ele>
        <time>2013-03-10T10:56:31Z</time>
      </trkpt>
      <trkpt lat="43.50022" lon="5.33327">
        <ele>132</ele>
        <time>2013-03-10T10:56:41Z</time>
      </trkpt>
      <trkpt lat="43.50029" lon="5.33338">
        <ele>129</ele>
        <time>2013-03-10T10:56:51Z</time>
      </trkpt>
      <trkpt lat="43.50036" lon="5.33348">
        <ele>127</ele>
        <time>2013-03-10T10:57:01Z</time>
      </trkpt>
      <trkpt lat="43.50044" lon="5.3336">
        <ele>127</ele>
        <time>2013-03-10T10:57:10Z</time>
      </trkpt>
      <trkpt lat="43.5005" lon="5.33372">
        <ele>127</ele>
        <time>2013-03-10T10:57:20Z</time>
      </trkpt>
      <trkpt lat="43.50054" lon="5.33385">
        <ele>126</ele>
        <time>2013-03-10T10:57:30Z</time>
      </trkpt>
      <trkpt lat="43.50058" lon="5.33397">
        <ele>125</ele>
        <time>2013-03-10T10:57:39Z</time>
      </trkpt>
      <trkpt lat="43.50064" lon="5.33405">
        <ele>125</ele>
        <time>2013-03-10T10:57:49Z</time>
      </trkpt>
      <trkpt lat="43.50074" lon="5.3341">
        <ele>122</ele>
        <time>2013-03-10T10:58:00Z</time>
      </trkpt>
      <trkpt lat="43.50082" lon="5.33419">
        <ele>121</ele>
        <time>2013-03-10T10:58:10Z</time>
      </trkpt>
      <trkpt lat="43.5009" lon="5.33429">
        <ele>120</ele>
        <time>2013-03-10T10:58:19Z</time>
      </trkpt>
      <trkpt lat="43.50098" lon="5.33439">
        <ele>120</ele>
        <time>2013-03-10T10:58:29Z</time>
      </trkpt>
      <trkpt lat="43.50104" lon="5.3345">
        <ele>120</ele>
        <time>2013-03-10T10:58:38Z</time>
      </trkpt>
      <trkpt lat="43.50105" lon="5.33463">
        <ele>119</ele>
        <time>2013-03-10T10:58:47Z</time>
      </trkpt>
      <trkpt lat="43.5011" lon="5.33477">
        <ele>114</ele>
        <time>2013-03-10T10:58:56Z</time>
      </trkpt>
      <trkpt lat="43.50106" lon="5.33493">
        <ele>113</ele>
        <time>2013-03-10T10:59:06Z</time>
      </trkpt>
      <trkpt lat="43.50101" lon="5.33504">
        <ele>113</ele>
        <time>2013-03-10T10:59:15Z</time>
      </trkpt>
      <trkpt lat="43.50103" lon="5.33519">
        <ele>113</ele>
        <time>2013-03-10T10:59:24Z</time>
      </trkpt>
      <trkpt lat="43.50111" lon="5.33527">
        <ele>113</ele>
        <time>2013-03-10T10:59:34Z</time>
      </trkpt>
      <trkpt lat="43.50116" lon="5.3354">
        <ele>113</ele>
        <time>2013-03-10T10:59:43Z</time>
      </trkpt>
      <trkpt lat="43.50118" lon="5.33551">
        <ele>113</ele>
        <time>2013-03-10T10:59:52Z</time>
      </trkpt>
      <trkpt lat="43.50119" lon="5.33559">
        <ele>113</ele>
        <time>2013-03-10T11:00:18Z</time>
      </trkpt>
      <trkpt lat="43.50119" lon="5.33566">
        <ele>113</ele>
        <time>2013-03-10T11:00:27Z</time>
      </trkpt>
      <trkpt lat="43.5012" lon="5.33579">
        <ele>113</ele>
        <time>2013-03-10T11:00:36Z</time>
      </trkpt>
      <trkpt lat="43.50116" lon="5.33593">
        <ele>113</ele>
        <time>2013-03-10T11:00:45Z</time>
      </trkpt>
      <trkpt lat="43.50109" lon="5.33605">
        <ele>113</ele>
        <time>2013-03-10T11:00:54Z</time>
      </trkpt>
      <trkpt lat="43.50098" lon="5.33613">
        <ele>113</ele>
        <time>2013-03-10T11:01:03Z</time>
      </trkpt>
      <trkpt lat="43.50089" lon="5.33624">
        <ele>113</ele>
        <time>2013-03-10T11:01:12Z</time>
      </trkpt>
      <trkpt lat="43.5008" lon="5.33632">
        <ele>115</ele>
        <time>2013-03-10T11:01:21Z</time>
      </trkpt>
      <trkpt lat="43.50068" lon="5.33636">
        <ele>117</ele>
        <time>2013-03-10T11:01:31Z</time>
      </trkpt>
      <trkpt lat="43.50059" lon="5.33637">
        <ele>117</ele>
        <time>2013-03-10T11:01:40Z</time>
      </trkpt>
      <trkpt lat="43.50048" lon="5.33648">
        <ele>117</ele>
        <time>2013-03-10T11:01:51Z</time>
      </trkpt>
      <trkpt lat="43.50042" lon="5.33661">
        <ele>118</ele>
        <time>2013-03-10T11:02:00Z</time>
      </trkpt>
      <trkpt lat="43.50037" lon="5.33672">
        <ele>118</ele>
        <time>2013-03-10T11:02:10Z</time>
      </trkpt>
      <trkpt lat="43.50031" lon="5.33684">
        <ele>120</ele>
        <time>2013-03-10T11:02:19Z</time>
      </trkpt>
      <trkpt lat="43.50023" lon="5.33696">
        <ele>122</ele>
        <time>2013-03-10T11:02:28Z</time>
      </trkpt>
      <trkpt lat="43.50013" lon="5.33708">
        <ele>125</ele>
        <time>2013-03-10T11:02:38Z</time>
      </trkpt>
      <trkpt lat="43.50006" lon="5.33717">
        <ele>125</ele>
        <time>2013-03-10T11:02:47Z</time>
      </trkpt>
      <trkpt lat="43.49997" lon="5.3373">
        <ele>125</ele>
        <time>2013-03-10T11:02:57Z</time>
      </trkpt>
      <trkpt lat="43.4999" lon="5.33743">
        <ele>125</ele>
        <time>2013-03-10T11:03:06Z</time>
      </trkpt>
      <trkpt lat="43.49982" lon="5.33758">
        <ele>125</ele>
        <time>2013-03-10T11:03:15Z</time>
      </trkpt>
      <trkpt lat="43.49973" lon="5.33772">
        <ele>125</ele>
        <time>2013-03-10T11:03:24Z</time>
      </trkpt>
      <trkpt lat="43.49963" lon="5.33784">
        <ele>125</ele>
        <time>2013-03-10T11:03:34Z</time>
      </trkpt>
      <trkpt lat="43.49956" lon="5.33798">
        <ele>125</ele>
        <time>2013-03-10T11:03:43Z</time>
      </trkpt>
      <trkpt lat="43.49949" lon="5.33811">
        <ele>125</ele>
        <time>2013-03-10T11:03:52Z</time>
      </trkpt>
      <trkpt lat="43.49944" lon="5.33823">
        <ele>125</ele>
        <time>2013-03-10T11:04:02Z</time>
      </trkpt>
      <trkpt lat="43.49939" lon="5.33836">
        <ele>125</ele>
        <time>2013-03-10T11:04:11Z</time>
      </trkpt>
      <trkpt lat="43.49935" lon="5.3385">
        <ele>125</ele>
        <time>2013-03-10T11:04:21Z</time>
      </trkpt>
      <trkpt lat="43.49931" lon="5.33864">
        <ele>125</ele>
        <time>2013-03-10T11:04:30Z</time>
      </trkpt>
      <trkpt lat="43.49926" lon="5.33877">
        <ele>125</ele>
        <time>2013-03-10T11:04:39Z</time>
      </trkpt>
      <trkpt lat="43.49921" lon="5.3389">
        <ele>125</ele>
        <time>2013-03-10T11:04:49Z</time>
      </trkpt>
      <trkpt lat="43.49916" lon="5.33903">
        <ele>125</ele>
        <time>2013-03-10T11:04:58Z</time>
      </trkpt>
      <trkpt lat="43.49911" lon="5.33916">
        <ele>127</ele>
        <time>2013-03-10T11:05:07Z</time>
      </trkpt>
      <trkpt lat="43.49908" lon="5.33928">
        <ele>128</ele>
        <time>2013-03-10T11:05:16Z</time>
      </trkpt>
      <trkpt lat="43.49902" lon="5.33941">
        <ele>128</ele>
        <time>2013-03-10T11:05:26Z</time>
      </trkpt>
      <trkpt lat="43.499" lon="5.33951">
        <ele>128</ele>
        <time>2013-03-10T11:05:35Z</time>
      </trkpt>
      <trkpt lat="43.49904" lon="5.33956">
        <ele>130</ele>
        <time>2013-03-10T11:05:44Z</time>
      </trkpt>
      <trkpt lat="43.49913" lon="5.33964">
        <ele>133</ele>
        <time>2013-03-10T11:05:54Z</time>
      </trkpt>
      <trkpt lat="43.49916" lon="5.33976">
        <ele>137</ele>
        <time>2013-03-10T11:06:04Z</time>
      </trkpt>
      <trkpt lat="43.4992" lon="5.3399">
        <ele>141</ele>
        <time>2013-03-10T11:06:13Z</time>
      </trkpt>
      <trkpt lat="43.49923" lon="5.34004">
        <ele>142</ele>
        <time>2013-03-10T11:06:22Z</time>
      </trkpt>
      <trkpt lat="43.49928" lon="5.34018">
        <ele>146</ele>
        <time>2013-03-10T11:06:32Z</time>
      </trkpt>
      <trkpt lat="43.49935" lon="5.34027">
        <ele>146</ele>
        <time>2013-03-10T11:06:41Z</time>
      </trkpt>
      <trkpt lat="43.49944" lon="5.34033">
        <ele>146</ele>
        <time>2013-03-10T11:06:52Z</time>
      </trkpt>
      <trkpt lat="43.49954" lon="5.3404">
        <ele>146</ele>
        <time>2013-03-10T11:07:02Z</time>
      </trkpt>
      <trkpt lat="43.49963" lon="5.34045">
        <ele>146</ele>
        <time>2013-03-10T11:07:12Z</time>
      </trkpt>
      <trkpt lat="43.49972" lon="5.34055">
        <ele>146</ele>
        <time>2013-03-10T11:07:22Z</time>
      </trkpt>
      <trkpt lat="43.49974" lon="5.34063">
        <ele>146</ele>
        <time>2013-03-10T11:07:31Z</time>
      </trkpt>
      <trkpt lat="43.49966" lon="5.34072">
        <ele>150</ele>
        <time>2013-03-10T11:07:40Z</time>
      </trkpt>
      <trkpt lat="43.49954" lon="5.3408">
        <ele>152</ele>
        <time>2013-03-10T11:07:50Z</time>
      </trkpt>
      <trkpt lat="43.49949" lon="5.34091">
        <ele>153</ele>
        <time>2013-03-10T11:07:59Z</time>
      </trkpt>
      <trkpt lat="43.49945" lon="5.34106">
        <ele>153</ele>
        <time>2013-03-10T11:08:08Z</time>
      </trkpt>
      <trkpt lat="43.49944" lon="5.34121">
        <ele>155</ele>
        <time>2013-03-10T11:08:17Z</time>
      </trkpt>
      <trkpt lat="43.49942" lon="5.34134">
        <ele>155</ele>
        <time>2013-03-10T11:08:27Z</time>
      </trkpt>
      <trkpt lat="43.49939" lon="5.34148">
        <ele>155</ele>
        <time>2013-03-10T11:08:36Z</time>
      </trkpt>
      <trkpt lat="43.49935" lon="5.34158">
        <ele>154</ele>
        <time>2013-03-10T11:08:45Z</time>
      </trkpt>
      <trkpt lat="43.49929" lon="5.3417">
        <ele>154</ele>
        <time>2013-03-10T11:08:54Z</time>
      </trkpt>
      <trkpt lat="43.49922" lon="5.34182">
        <ele>152</ele>
        <time>2013-03-10T11:09:04Z</time>
      </trkpt>
      <trkpt lat="43.49918" lon="5.34193">
        <ele>152</ele>
        <time>2013-03-10T11:09:14Z</time>
      </trkpt>
      <trkpt lat="43.49921" lon="5.34207">
        <ele>151</ele>
        <time>2013-03-10T11:09:24Z</time>
      </trkpt>
      <trkpt lat="43.49925" lon="5.34223">
        <ele>150</ele>
        <time>2013-03-10T11:09:34Z</time>
      </trkpt>
      <trkpt lat="43.49929" lon="5.34239">
        <ele>150</ele>
        <time>2013-03-10T11:09:43Z</time>
      </trkpt>
      <trkpt lat="43.4993" lon="5.34253">
        <ele>150</ele>
        <time>2013-03-10T11:09:52Z</time>
      </trkpt>
      <trkpt lat="43.4993" lon="5.34268">
        <ele>150</ele>
        <time>2013-03-10T11:10:02Z</time>
      </trkpt>
      <trkpt lat="43.49932" lon="5.34281">
        <ele>149</ele>
        <time>2013-03-10T11:10:12Z</time>
      </trkpt>
      <trkpt lat="43.49932" lon="5.34294">
        <ele>148</ele>
        <time>2013-03-10T11:10:22Z</time>
      </trkpt>
      <trkpt lat="43.49931" lon="5.34306">
        <ele>147</ele>
        <time>2013-03-10T11:10:31Z</time>
      </trkpt>
      <trkpt lat="43.49932" lon="5.3432">
        <ele>145</ele>
        <time>2013-03-10T11:10:41Z</time>
      </trkpt>
      <trkpt lat="43.49933" lon="5.34327">
        <ele>144</ele>
        <time>2013-03-10T11:10:51Z</time>
      </trkpt>
      <trkpt lat="43.49937" lon="5.3434">
        <ele>143</ele>
        <time>2013-03-10T11:11:01Z</time>
      </trkpt>
      <trkpt lat="43.49943" lon="5.34351">
        <ele>143</ele>
        <time>2013-03-10T11:11:11Z</time>
      </trkpt>
      <trkpt lat="43.4995" lon="5.34362">
        <ele>143</ele>
        <time>2013-03-10T11:11:21Z</time>
      </trkpt>
      <trkpt lat="43.49958" lon="5.34374">
        <ele>142</ele>
        <time>2013-03-10T11:11:31Z</time>
      </trkpt>
      <trkpt lat="43.49964" lon="5.34384">
        <ele>141</ele>
        <time>2013-03-10T11:11:40Z</time>
      </trkpt>
      <trkpt lat="43.49968" lon="5.34392">
        <ele>140</ele>
        <time>2013-03-10T11:11:49Z</time>
      </trkpt>
      <trkpt lat="43.49976" lon="5.34403">
        <ele>138</ele>
        <time>2013-03-10T11:11:59Z</time>
      </trkpt>
      <trkpt lat="43.49986" lon="5.34411">
        <ele>136</ele>
        <time>2013-03-10T11:12:09Z</time>
      </trkpt>
      <trkpt lat="43.49996" lon="5.34415">
        <ele>135</ele>
        <time>2013-03-10T11:12:19Z</time>
      </trkpt>
      <trkpt lat="43.50005" lon="5.34415">
        <ele>134</ele>
        <time>2013-03-10T11:12:28Z</time>
      </trkpt>
      <trkpt lat="43.50015" lon="5.34419">
        <ele>134</ele>
        <time>2013-03-10T11:12:37Z</time>
      </trkpt>
      <trkpt lat="43.50026" lon="5.3442">
        <ele>134</ele>
        <time>2013-03-10T11:12:46Z</time>
      </trkpt>
      <trkpt lat="43.50036" lon="5.34423">
        <ele>134</ele>
        <time>2013-03-10T11:12:55Z</time>
      </trkpt>
      <trkpt lat="43.50048" lon="5.34426">
        <ele>134</ele>
        <time>2013-03-10T11:13:05Z</time>
      </trkpt>
      <trkpt lat="43.50059" lon="5.3443">
        <ele>134</ele>
        <time>2013-03-10T11:13:15Z</time>
      </trkpt>
      <trkpt lat="43.50062" lon="5.34444">
        <ele>133</ele>
        <time>2013-03-10T11:13:25Z</time>
      </trkpt>
      <trkpt lat="43.50056" lon="5.34458">
        <ele>133</ele>
        <time>2013-03-10T11:13:35Z</time>
      </trkpt>
      <trkpt lat="43.50049" lon="5.34474">
        <ele>131</ele>
        <time>2013-03-10T11:13:45Z</time>
      </trkpt>
      <trkpt lat="43.50046" lon="5.34489">
        <ele>131</ele>
        <time>2013-03-10T11:13:55Z</time>
      </trkpt>
      <trkpt lat="43.50041" lon="5.34503">
        <ele>131</ele>
        <time>2013-03-10T11:14:04Z</time>
      </trkpt>
      <trkpt lat="43.50034" lon="5.34517">
        <ele>131</ele>
        <time>2013-03-10T11:14:13Z</time>
      </trkpt>
      <trkpt lat="43.50028" lon="5.34532">
        <ele>131</ele>
        <time>2013-03-10T11:14:24Z</time>
      </trkpt>
      <trkpt lat="43.50021" lon="5.34532">
        <ele>131</ele>
        <time>2013-03-10T11:14:33Z</time>
      </trkpt>
      <trkpt lat="43.50011" lon="5.34543">
        <ele>131</ele>
        <time>2013-03-10T11:14:44Z</time>
      </trkpt>
      <trkpt lat="43.50001" lon="5.34555">
        <ele>131</ele>
        <time>2013-03-10T11:14:54Z</time>
      </trkpt>
      <trkpt lat="43.49992" lon="5.34566">
        <ele>131</ele>
        <time>2013-03-10T11:15:03Z</time>
      </trkpt>
      <trkpt lat="43.49983" lon="5.34577">
        <ele>131</ele>
        <time>2013-03-10T11:15:14Z</time>
      </trkpt>
      <trkpt lat="43.49973" lon="5.34584">
        <ele>131</ele>
        <time>2013-03-10T11:15:24Z</time>
      </trkpt>
      <trkpt lat="43.49965" lon="5.3459">
        <ele>131</ele>
        <time>2013-03-10T11:15:33Z</time>
      </trkpt>
      <trkpt lat="43.49954" lon="5.3459">
        <ele>131</ele>
        <time>2013-03-10T11:15:43Z</time>
      </trkpt>
      <trkpt lat="43.49943" lon="5.3459">
        <ele>130</ele>
        <time>2013-03-10T11:15:53Z</time>
      </trkpt>
      <trkpt lat="43.49934" lon="5.34591">
        <ele>127</ele>
        <time>2013-03-10T11:16:02Z</time>
      </trkpt>
      <trkpt lat="43.49922" lon="5.34601">
        <ele>127</ele>
        <time>2013-03-10T11:16:12Z</time>
      </trkpt>
      <trkpt lat="43.49913" lon="5.34609">
        <ele>125</ele>
        <time>2013-03-10T11:16:21Z</time>
      </trkpt>
      <trkpt lat="43.49906" lon="5.3462">
        <ele>125</ele>
        <time>2013-03-10T11:16:31Z</time>
      </trkpt>
      <trkpt lat="43.499" lon="5.3463">
        <ele>125</ele>
        <time>2013-03-10T11:16:40Z</time>
      </trkpt>
      <trkpt lat="43.49887" lon="5.34635">
        <ele>125</ele>
        <time>2013-03-10T11:16:50Z</time>
      </trkpt>
      <trkpt lat="43.49879" lon="5.34643">
        <ele>124</ele>
        <time>2013-03-10T11:16:59Z</time>
      </trkpt>
      <trkpt lat="43.4987" lon="5.34656">
        <ele>124</ele>
        <time>2013-03-10T11:17:09Z</time>
      </trkpt>
      <trkpt lat="43.4986" lon="5.34667">
        <ele>124</ele>
        <time>2013-03-10T11:17:19Z</time>
      </trkpt>
      <trkpt lat="43.49851" lon="5.34677">
        <ele>123</ele>
        <time>2013-03-10T11:17:29Z</time>
      </trkpt>
      <trkpt lat="43.49841" lon="5.34689">
        <ele>121</ele>
        <time>2013-03-10T11:17:39Z</time>
      </trkpt>
      <trkpt lat="43.49832" lon="5.34702">
        <ele>121</ele>
        <time>2013-03-10T11:17:49Z</time>
      </trkpt>
      <trkpt lat="43.49834" lon="5.34714">
        <ele>120</ele>
        <time>2013-03-10T11:17:59Z</time>
      </trkpt>
      <trkpt lat="43.49843" lon="5.34717">
        <ele>119</ele>
        <time>2013-03-10T11:18:08Z</time>
      </trkpt>
      <trkpt lat="43.49852" lon="5.3472">
        <ele>119</ele>
        <time>2013-03-10T11:18:18Z</time>
      </trkpt>
      <trkpt lat="43.49859" lon="5.34725">
        <ele>119</ele>
        <time>2013-03-10T11:18:28Z</time>
      </trkpt>
      <trkpt lat="43.49867" lon="5.34732">
        <ele>119</ele>
        <time>2013-03-10T11:18:37Z</time>
      </trkpt>
      <trkpt lat="43.49875" lon="5.34739">
        <ele>120</ele>
        <time>2013-03-10T11:18:47Z</time>
      </trkpt>
      <trkpt lat="43.49884" lon="5.3474">
        <ele>121</ele>
        <time>2013-03-10T11:18:56Z</time>
      </trkpt>
      <trkpt lat="43.49894" lon="5.34742">
        <ele>121</ele>
        <time>2013-03-10T11:19:06Z</time>
      </trkpt>
      <trkpt lat="43.49905" lon="5.34753">
        <ele>121</ele>
        <time>2013-03-10T11:19:16Z</time>
      </trkpt>
      <trkpt lat="43.4991" lon="5.34765">
        <ele>121</ele>
        <time>2013-03-10T11:19:25Z</time>
      </trkpt>
      <trkpt lat="43.49911" lon="5.3478">
        <ele>121</ele>
        <time>2013-03-10T11:19:35Z</time>
      </trkpt>
      <trkpt lat="43.49912" lon="5.34795">
        <ele>121</ele>
        <time>2013-03-10T11:19:44Z</time>
      </trkpt>
      <trkpt lat="43.49914" lon="5.3481">
        <ele>121</ele>
        <time>2013-03-10T11:19:53Z</time>
      </trkpt>
      <trkpt lat="43.49916" lon="5.34822">
        <ele>121</ele>
        <time>2013-03-10T11:20:02Z</time>
      </trkpt>
      <trkpt lat="43.49922" lon="5.34833">
        <ele>121</ele>
        <time>2013-03-10T11:20:12Z</time>
      </trkpt>
      <trkpt lat="43.49925" lon="5.34847">
        <ele>120</ele>
        <time>2013-03-10T11:20:21Z</time>
      </trkpt>
      <trkpt lat="43.49924" lon="5.34862">
        <ele>117</ele>
        <time>2013-03-10T11:20:30Z</time>
      </trkpt>
      <trkpt lat="43.49922" lon="5.34873">
        <ele>115</ele>
        <time>2013-03-10T11:20:39Z</time>
      </trkpt>
      <trkpt lat="43.49918" lon="5.34871">
        <ele>114</ele>
        <time>2013-03-10T11:20:50Z</time>
      </trkpt>
      <trkpt lat="43.49916" lon="5.34868">
        <ele>113</ele>
        <time>2013-03-10T11:21:02Z</time>
      </trkpt>
      <trkpt lat="43.49917" lon="5.3487">
        <ele>110</ele>
        <time>2013-03-10T11:21:11Z</time>
      </trkpt>
      <trkpt lat="43.49917" lon="5.34887">
        <ele>109</ele>
        <time>2013-03-10T11:21:21Z</time>
      </trkpt>
      <trkpt lat="43.49912" lon="5.34901">
        <ele>109</ele>
        <time>2013-03-10T11:21:30Z</time>
      </trkpt>
      <trkpt lat="43.49906" lon="5.34915">
        <ele>109</ele>
        <time>2013-03-10T11:21:39Z</time>
      </trkpt>
      <trkpt lat="43.49899" lon="5.34931">
        <ele>109</ele>
        <time>2013-03-10T11:21:50Z</time>
      </trkpt>
      <trkpt lat="43.49894" lon="5.34943">
        <ele>109</ele>
        <time>2013-03-10T11:21:59Z</time>
      </trkpt>
      <trkpt lat="43.49892" lon="5.34955">
        <ele>108</ele>
        <time>2013-03-10T11:22:08Z</time>
      </trkpt>
      <trkpt lat="43.499" lon="5.34966">
        <ele>105</ele>
        <time>2013-03-10T11:22:18Z</time>
      </trkpt>
      <trkpt lat="43.49908" lon="5.34973">
        <ele>105</ele>
        <time>2013-03-10T11:22:28Z</time>
      </trkpt>
      <trkpt lat="43.49917" lon="5.34979">
        <ele>104</ele>
        <time>2013-03-10T11:22:38Z</time>
      </trkpt>
      <trkpt lat="43.49924" lon="5.34985">
        <ele>102</ele>
        <time>2013-03-10T11:22:48Z</time>
      </trkpt>
      <trkpt lat="43.49933" lon="5.34991">
        <ele>102</ele>
        <time>2013-03-10T11:22:58Z</time>
      </trkpt>
      <trkpt lat="43.49939" lon="5.34995">
        <ele>102</ele>
        <time>2013-03-10T11:23:07Z</time>
      </trkpt>
      <trkpt lat="43.4995" lon="5.35002">
        <ele>102</ele>
        <time>2013-03-10T11:23:17Z</time>
      </trkpt>
      <trkpt lat="43.49959" lon="5.35014">
        <ele>102</ele>
        <time>2013-03-10T11:23:28Z</time>
      </trkpt>
      <trkpt lat="43.49967" lon="5.35018">
        <ele>102</ele>
        <time>2013-03-10T11:23:38Z</time>
      </trkpt>
      <trkpt lat="43.49967" lon="5.35019">
        <ele>102</ele>
        <time>2013-03-10T11:23:40Z</time>
      </trkpt>
    </trkseg>
  </trk>
</gpx>